<?xml version="1.0" encoding="UTF-8" standalone="no" ?>
<gpx xmlns="http://www.topografix.com/GPX/1/1" xmlns:xsi="http://www.w3.org/2001/XMLSchema-instance" xsi:schemaLocation="http://www.topografix.com/GPX/1/1 http://www.topografix.com/GPX/1/1/gpx.xsd" version="1.1" creator="VisuGPX - https://www.visugpx.com">
  <metadata>
    <name>Montdauphin, Gros, Maison du Roi, Guillestre</name>
    <desc><![CDATA[Montdauphin, Eygliers, Gros, Maison du Roi, Guillestre.]]></desc>
  </metadata>
  <trk>
    <name><![CDATA[140814-Gros-Maison-du-Roi]]></name>
    <trkseg>
      <trkpt lat="44.66059" lon="6.62849">
        <ele>951.42</ele>
        <time>2014-08-14T07:23:04Z</time>
      </trkpt>
      <trkpt lat="44.66031" lon="6.62849">
        <ele>909.42</ele>
        <time>2014-08-14T07:23:08Z</time>
      </trkpt>
      <trkpt lat="44.66041" lon="6.62823">
        <ele>937.93</ele>
        <time>2014-08-14T07:23:33Z</time>
      </trkpt>
      <trkpt lat="44.66023" lon="6.62815">
        <ele>934.26</ele>
        <time>2014-08-14T07:23:51Z</time>
      </trkpt>
      <trkpt lat="44.66042" lon="6.62821">
        <ele>929.58</ele>
        <time>2014-08-14T07:24:15Z</time>
      </trkpt>
      <trkpt lat="44.66064" lon="6.62827">
        <ele>927.56</ele>
        <time>2014-08-14T07:24:27Z</time>
      </trkpt>
      <trkpt lat="44.66084" lon="6.62823">
        <ele>926.05</ele>
        <time>2014-08-14T07:24:35Z</time>
      </trkpt>
      <trkpt lat="44.66105" lon="6.62812">
        <ele>925.5</ele>
        <time>2014-08-14T07:24:41Z</time>
      </trkpt>
      <trkpt lat="44.66122" lon="6.628">
        <ele>923.46</ele>
        <time>2014-08-14T07:24:45Z</time>
      </trkpt>
      <trkpt lat="44.6614" lon="6.62782">
        <ele>919.93</ele>
        <time>2014-08-14T07:24:49Z</time>
      </trkpt>
      <trkpt lat="44.66156" lon="6.62765">
        <ele>918.8</ele>
        <time>2014-08-14T07:24:53Z</time>
      </trkpt>
      <trkpt lat="44.66173" lon="6.62746">
        <ele>918.02</ele>
        <time>2014-08-14T07:24:57Z</time>
      </trkpt>
      <trkpt lat="44.66191" lon="6.62729">
        <ele>917.07</ele>
        <time>2014-08-14T07:25:01Z</time>
      </trkpt>
      <trkpt lat="44.66213" lon="6.62716">
        <ele>915.83</ele>
        <time>2014-08-14T07:25:05Z</time>
      </trkpt>
      <trkpt lat="44.66237" lon="6.62703">
        <ele>914.77</ele>
        <time>2014-08-14T07:25:09Z</time>
      </trkpt>
      <trkpt lat="44.66263" lon="6.6269">
        <ele>914.01</ele>
        <time>2014-08-14T07:25:13Z</time>
      </trkpt>
      <trkpt lat="44.6629" lon="6.62677">
        <ele>913.07</ele>
        <time>2014-08-14T07:25:17Z</time>
      </trkpt>
      <trkpt lat="44.66316" lon="6.62664">
        <ele>913.33</ele>
        <time>2014-08-14T07:25:21Z</time>
      </trkpt>
      <trkpt lat="44.66338" lon="6.62639">
        <ele>911.65</ele>
        <time>2014-08-14T07:25:25Z</time>
      </trkpt>
      <trkpt lat="44.66357" lon="6.62611">
        <ele>909.48</ele>
        <time>2014-08-14T07:25:29Z</time>
      </trkpt>
      <trkpt lat="44.66365" lon="6.62587">
        <ele>908.05</ele>
        <time>2014-08-14T07:25:35Z</time>
      </trkpt>
      <trkpt lat="44.66377" lon="6.62566">
        <ele>906.96</ele>
        <time>2014-08-14T07:25:43Z</time>
      </trkpt>
      <trkpt lat="44.6639" lon="6.62536">
        <ele>905.95</ele>
        <time>2014-08-14T07:25:51Z</time>
      </trkpt>
      <trkpt lat="44.66396" lon="6.6251">
        <ele>905.49</ele>
        <time>2014-08-14T07:25:57Z</time>
      </trkpt>
      <trkpt lat="44.66389" lon="6.6248">
        <ele>905.43</ele>
        <time>2014-08-14T07:26:03Z</time>
      </trkpt>
      <trkpt lat="44.66375" lon="6.62458">
        <ele>905.42</ele>
        <time>2014-08-14T07:26:09Z</time>
      </trkpt>
      <trkpt lat="44.66369" lon="6.62433">
        <ele>905.67</ele>
        <time>2014-08-14T07:26:13Z</time>
      </trkpt>
      <trkpt lat="44.66369" lon="6.624">
        <ele>904.23</ele>
        <time>2014-08-14T07:26:17Z</time>
      </trkpt>
      <trkpt lat="44.66377" lon="6.62368">
        <ele>903.12</ele>
        <time>2014-08-14T07:26:21Z</time>
      </trkpt>
      <trkpt lat="44.66388" lon="6.62336">
        <ele>902.6</ele>
        <time>2014-08-14T07:26:25Z</time>
      </trkpt>
      <trkpt lat="44.66397" lon="6.62308">
        <ele>902.46</ele>
        <time>2014-08-14T07:26:29Z</time>
      </trkpt>
      <trkpt lat="44.66406" lon="6.6228">
        <ele>902.43</ele>
        <time>2014-08-14T07:26:33Z</time>
      </trkpt>
      <trkpt lat="44.66417" lon="6.6225">
        <ele>901.67</ele>
        <time>2014-08-14T07:26:37Z</time>
      </trkpt>
      <trkpt lat="44.66428" lon="6.6222">
        <ele>900.98</ele>
        <time>2014-08-14T07:26:41Z</time>
      </trkpt>
      <trkpt lat="44.66441" lon="6.62192">
        <ele>901.31</ele>
        <time>2014-08-14T07:26:45Z</time>
      </trkpt>
      <trkpt lat="44.66451" lon="6.62169">
        <ele>902.14</ele>
        <time>2014-08-14T07:26:49Z</time>
      </trkpt>
      <trkpt lat="44.66462" lon="6.62143">
        <ele>902.35</ele>
        <time>2014-08-14T07:26:53Z</time>
      </trkpt>
      <trkpt lat="44.66475" lon="6.62119">
        <ele>903.65</ele>
        <time>2014-08-14T07:26:57Z</time>
      </trkpt>
      <trkpt lat="44.66492" lon="6.62096">
        <ele>904.23</ele>
        <time>2014-08-14T07:27:01Z</time>
      </trkpt>
      <trkpt lat="44.66511" lon="6.62074">
        <ele>903.12</ele>
        <time>2014-08-14T07:27:05Z</time>
      </trkpt>
      <trkpt lat="44.66531" lon="6.62053">
        <ele>901.35</ele>
        <time>2014-08-14T07:27:09Z</time>
      </trkpt>
      <trkpt lat="44.66553" lon="6.62031">
        <ele>899.4</ele>
        <time>2014-08-14T07:27:13Z</time>
      </trkpt>
      <trkpt lat="44.66575" lon="6.6201">
        <ele>897.92</ele>
        <time>2014-08-14T07:27:17Z</time>
      </trkpt>
      <trkpt lat="44.66596" lon="6.61988">
        <ele>896.29</ele>
        <time>2014-08-14T07:27:21Z</time>
      </trkpt>
      <trkpt lat="44.66617" lon="6.61973">
        <ele>894.39</ele>
        <time>2014-08-14T07:27:25Z</time>
      </trkpt>
      <trkpt lat="44.66638" lon="6.61961">
        <ele>892.41</ele>
        <time>2014-08-14T07:27:29Z</time>
      </trkpt>
      <trkpt lat="44.66659" lon="6.6195">
        <ele>891.67</ele>
        <time>2014-08-14T07:27:33Z</time>
      </trkpt>
      <trkpt lat="44.66682" lon="6.61937">
        <ele>891.48</ele>
        <time>2014-08-14T07:27:37Z</time>
      </trkpt>
      <trkpt lat="44.66701" lon="6.61924">
        <ele>890.69</ele>
        <time>2014-08-14T07:27:41Z</time>
      </trkpt>
      <trkpt lat="44.6672" lon="6.61918">
        <ele>889.24</ele>
        <time>2014-08-14T07:27:45Z</time>
      </trkpt>
      <trkpt lat="44.66742" lon="6.61913">
        <ele>888.13</ele>
        <time>2014-08-14T07:27:49Z</time>
      </trkpt>
      <trkpt lat="44.66767" lon="6.61913">
        <ele>888.1</ele>
        <time>2014-08-14T07:27:53Z</time>
      </trkpt>
      <trkpt lat="44.66789" lon="6.61909">
        <ele>888.34</ele>
        <time>2014-08-14T07:27:57Z</time>
      </trkpt>
      <trkpt lat="44.66808" lon="6.61903">
        <ele>888.4</ele>
        <time>2014-08-14T07:28:01Z</time>
      </trkpt>
      <trkpt lat="44.66828" lon="6.61896">
        <ele>889.17</ele>
        <time>2014-08-14T07:28:05Z</time>
      </trkpt>
      <trkpt lat="44.66849" lon="6.61892">
        <ele>888.86</ele>
        <time>2014-08-14T07:28:09Z</time>
      </trkpt>
      <trkpt lat="44.66869" lon="6.61888">
        <ele>888.03</ele>
        <time>2014-08-14T07:28:13Z</time>
      </trkpt>
      <trkpt lat="44.66892" lon="6.61894">
        <ele>887.46</ele>
        <time>2014-08-14T07:28:21Z</time>
      </trkpt>
      <trkpt lat="44.66909" lon="6.61911">
        <ele>887.42</ele>
        <time>2014-08-14T07:28:35Z</time>
      </trkpt>
      <trkpt lat="44.66935" lon="6.61911">
        <ele>887.42</ele>
        <time>2014-08-14T07:28:41Z</time>
      </trkpt>
      <trkpt lat="44.66957" lon="6.61911">
        <ele>886.92</ele>
        <time>2014-08-14T07:28:45Z</time>
      </trkpt>
      <trkpt lat="44.66979" lon="6.61911">
        <ele>887.05</ele>
        <time>2014-08-14T07:28:49Z</time>
      </trkpt>
      <trkpt lat="44.67005" lon="6.6192">
        <ele>887.37</ele>
        <time>2014-08-14T07:28:55Z</time>
      </trkpt>
      <trkpt lat="44.67027" lon="6.61933">
        <ele>887.92</ele>
        <time>2014-08-14T07:29:01Z</time>
      </trkpt>
      <trkpt lat="44.67051" lon="6.61933">
        <ele>888.36</ele>
        <time>2014-08-14T07:29:07Z</time>
      </trkpt>
      <trkpt lat="44.67072" lon="6.61939">
        <ele>888.42</ele>
        <time>2014-08-14T07:29:15Z</time>
      </trkpt>
      <trkpt lat="44.6709" lon="6.61943">
        <ele>888.42</ele>
        <time>2014-08-14T07:29:23Z</time>
      </trkpt>
      <trkpt lat="44.6711" lon="6.61952">
        <ele>888.42</ele>
        <time>2014-08-14T07:29:31Z</time>
      </trkpt>
      <trkpt lat="44.6713" lon="6.61961">
        <ele>888.42</ele>
        <time>2014-08-14T07:29:39Z</time>
      </trkpt>
      <trkpt lat="44.67148" lon="6.61978">
        <ele>888.42</ele>
        <time>2014-08-14T07:29:47Z</time>
      </trkpt>
      <trkpt lat="44.67162" lon="6.61997">
        <ele>889.36</ele>
        <time>2014-08-14T07:29:57Z</time>
      </trkpt>
      <trkpt lat="44.67182" lon="6.62006">
        <ele>890.89</ele>
        <time>2014-08-14T07:30:09Z</time>
      </trkpt>
      <trkpt lat="44.67199" lon="6.62019">
        <ele>891.9</ele>
        <time>2014-08-14T07:30:19Z</time>
      </trkpt>
      <trkpt lat="44.67219" lon="6.62031">
        <ele>893.16</ele>
        <time>2014-08-14T07:30:31Z</time>
      </trkpt>
      <trkpt lat="44.67242" lon="6.62042">
        <ele>894.89</ele>
        <time>2014-08-14T07:30:45Z</time>
      </trkpt>
      <trkpt lat="44.6726" lon="6.62053">
        <ele>895.9</ele>
        <time>2014-08-14T07:30:55Z</time>
      </trkpt>
      <trkpt lat="44.67277" lon="6.62066">
        <ele>897.15</ele>
        <time>2014-08-14T07:31:05Z</time>
      </trkpt>
      <trkpt lat="44.67293" lon="6.62081">
        <ele>900.17</ele>
        <time>2014-08-14T07:32:29Z</time>
      </trkpt>
      <trkpt lat="44.67302" lon="6.62104">
        <ele>900.42</ele>
        <time>2014-08-14T07:32:45Z</time>
      </trkpt>
      <trkpt lat="44.67309" lon="6.6213">
        <ele>902.29</ele>
        <time>2014-08-14T07:33:07Z</time>
      </trkpt>
      <trkpt lat="44.67321" lon="6.62149">
        <ele>906.3</ele>
        <time>2014-08-14T07:34:21Z</time>
      </trkpt>
      <trkpt lat="44.67335" lon="6.62171">
        <ele>906.42</ele>
        <time>2014-08-14T07:34:37Z</time>
      </trkpt>
      <trkpt lat="44.67354" lon="6.62182">
        <ele>906.42</ele>
        <time>2014-08-14T07:34:47Z</time>
      </trkpt>
      <trkpt lat="44.67375" lon="6.6219">
        <ele>907.36</ele>
        <time>2014-08-14T07:34:57Z</time>
      </trkpt>
      <trkpt lat="44.6739" lon="6.6221">
        <ele>907.42</ele>
        <time>2014-08-14T07:35:05Z</time>
      </trkpt>
      <trkpt lat="44.67403" lon="6.62231">
        <ele>908.17</ele>
        <time>2014-08-14T07:35:13Z</time>
      </trkpt>
      <trkpt lat="44.6741" lon="6.62257">
        <ele>908.91</ele>
        <time>2014-08-14T07:35:23Z</time>
      </trkpt>
      <trkpt lat="44.67389" lon="6.62252">
        <ele>910.16</ele>
        <time>2014-08-14T07:35:35Z</time>
      </trkpt>
      <trkpt lat="44.67394" lon="6.62278">
        <ele>911.36</ele>
        <time>2014-08-14T07:35:55Z</time>
      </trkpt>
      <trkpt lat="44.6741" lon="6.62291">
        <ele>913.14</ele>
        <time>2014-08-14T07:36:05Z</time>
      </trkpt>
      <trkpt lat="44.67427" lon="6.62304">
        <ele>915.78</ele>
        <time>2014-08-14T07:36:17Z</time>
      </trkpt>
      <trkpt lat="44.67444" lon="6.62319">
        <ele>918.13</ele>
        <time>2014-08-14T07:36:29Z</time>
      </trkpt>
      <trkpt lat="44.67461" lon="6.62336">
        <ele>920.28</ele>
        <time>2014-08-14T07:36:41Z</time>
      </trkpt>
      <trkpt lat="44.67476" lon="6.62353">
        <ele>922.85</ele>
        <time>2014-08-14T07:36:57Z</time>
      </trkpt>
      <trkpt lat="44.67491" lon="6.62368">
        <ele>924.85</ele>
        <time>2014-08-14T07:37:09Z</time>
      </trkpt>
      <trkpt lat="44.67509" lon="6.62381">
        <ele>926.85</ele>
        <time>2014-08-14T07:37:21Z</time>
      </trkpt>
      <trkpt lat="44.67526" lon="6.62394">
        <ele>928.28</ele>
        <time>2014-08-14T07:37:31Z</time>
      </trkpt>
      <trkpt lat="44.67543" lon="6.62405">
        <ele>929.35</ele>
        <time>2014-08-14T07:37:41Z</time>
      </trkpt>
      <trkpt lat="44.67562" lon="6.62418">
        <ele>930.89</ele>
        <time>2014-08-14T07:37:53Z</time>
      </trkpt>
      <trkpt lat="44.67579" lon="6.62433">
        <ele>932.15</ele>
        <time>2014-08-14T07:38:03Z</time>
      </trkpt>
      <trkpt lat="44.67596" lon="6.62446">
        <ele>933.29</ele>
        <time>2014-08-14T07:38:13Z</time>
      </trkpt>
      <trkpt lat="44.67613" lon="6.62463">
        <ele>935.28</ele>
        <time>2014-08-14T07:38:25Z</time>
      </trkpt>
      <trkpt lat="44.67623" lon="6.62486">
        <ele>936.85</ele>
        <time>2014-08-14T07:38:35Z</time>
      </trkpt>
      <trkpt lat="44.67631" lon="6.6251">
        <ele>938.28</ele>
        <time>2014-08-14T07:38:45Z</time>
      </trkpt>
      <trkpt lat="44.67634" lon="6.62536">
        <ele>940.85</ele>
        <time>2014-08-14T07:38:59Z</time>
      </trkpt>
      <trkpt lat="44.67635" lon="6.62564">
        <ele>942.28</ele>
        <time>2014-08-14T07:39:09Z</time>
      </trkpt>
      <trkpt lat="44.67634" lon="6.62589">
        <ele>943.29</ele>
        <time>2014-08-14T07:39:17Z</time>
      </trkpt>
      <trkpt lat="44.67638" lon="6.62619">
        <ele>944.17</ele>
        <time>2014-08-14T07:39:27Z</time>
      </trkpt>
      <trkpt lat="44.67648" lon="6.62645">
        <ele>944.41</ele>
        <time>2014-08-14T07:39:37Z</time>
      </trkpt>
      <trkpt lat="44.6766" lon="6.62664">
        <ele>945.36</ele>
        <time>2014-08-14T07:39:45Z</time>
      </trkpt>
      <trkpt lat="44.67669" lon="6.62688">
        <ele>946.85</ele>
        <time>2014-08-14T07:39:53Z</time>
      </trkpt>
      <trkpt lat="44.67674" lon="6.62718">
        <ele>949.09</ele>
        <time>2014-08-14T07:40:03Z</time>
      </trkpt>
      <trkpt lat="44.67682" lon="6.62742">
        <ele>951.09</ele>
        <time>2014-08-14T07:40:11Z</time>
      </trkpt>
      <trkpt lat="44.67693" lon="6.62763">
        <ele>953.09</ele>
        <time>2014-08-14T07:40:19Z</time>
      </trkpt>
      <trkpt lat="44.67706" lon="6.62787">
        <ele>955.13</ele>
        <time>2014-08-14T07:40:29Z</time>
      </trkpt>
      <trkpt lat="44.67717" lon="6.6281">
        <ele>956.88</ele>
        <time>2014-08-14T07:40:39Z</time>
      </trkpt>
      <trkpt lat="44.67727" lon="6.62832">
        <ele>958.28</ele>
        <time>2014-08-14T07:40:49Z</time>
      </trkpt>
      <trkpt lat="44.67738" lon="6.62853">
        <ele>960.14</ele>
        <time>2014-08-14T07:40:59Z</time>
      </trkpt>
      <trkpt lat="44.67752" lon="6.62873">
        <ele>962.13</ele>
        <time>2014-08-14T07:41:09Z</time>
      </trkpt>
      <trkpt lat="44.67767" lon="6.62892">
        <ele>963.85</ele>
        <time>2014-08-14T07:41:19Z</time>
      </trkpt>
      <trkpt lat="44.67783" lon="6.62913">
        <ele>965.34</ele>
        <time>2014-08-14T07:41:29Z</time>
      </trkpt>
      <trkpt lat="44.67796" lon="6.62935">
        <ele>966.89</ele>
        <time>2014-08-14T07:41:39Z</time>
      </trkpt>
      <trkpt lat="44.67787" lon="6.62956">
        <ele>968.16</ele>
        <time>2014-08-14T07:41:51Z</time>
      </trkpt>
      <trkpt lat="44.67767" lon="6.62943">
        <ele>969.29</ele>
        <time>2014-08-14T07:42:01Z</time>
      </trkpt>
      <trkpt lat="44.67751" lon="6.62926">
        <ele>970.29</ele>
        <time>2014-08-14T07:42:09Z</time>
      </trkpt>
      <trkpt lat="44.67735" lon="6.62911">
        <ele>972.1</ele>
        <time>2014-08-14T07:42:17Z</time>
      </trkpt>
      <trkpt lat="44.67717" lon="6.62896">
        <ele>974.1</ele>
        <time>2014-08-14T07:42:27Z</time>
      </trkpt>
      <trkpt lat="44.67699" lon="6.62883">
        <ele>975.29</ele>
        <time>2014-08-14T07:42:37Z</time>
      </trkpt>
      <trkpt lat="44.67678" lon="6.6287">
        <ele>976.29</ele>
        <time>2014-08-14T07:42:47Z</time>
      </trkpt>
      <trkpt lat="44.67659" lon="6.6286">
        <ele>977.29</ele>
        <time>2014-08-14T07:42:57Z</time>
      </trkpt>
      <trkpt lat="44.67638" lon="6.62853">
        <ele>978.29</ele>
        <time>2014-08-14T07:43:07Z</time>
      </trkpt>
      <trkpt lat="44.67617" lon="6.62845">
        <ele>979.85</ele>
        <time>2014-08-14T07:43:17Z</time>
      </trkpt>
      <trkpt lat="44.67601" lon="6.62827">
        <ele>981.78</ele>
        <time>2014-08-14T07:43:27Z</time>
      </trkpt>
      <trkpt lat="44.6759" lon="6.62804">
        <ele>983.28</ele>
        <time>2014-08-14T07:43:37Z</time>
      </trkpt>
      <trkpt lat="44.67579" lon="6.62785">
        <ele>984.79</ele>
        <time>2014-08-14T07:43:45Z</time>
      </trkpt>
      <trkpt lat="44.67562" lon="6.62767">
        <ele>987.09</ele>
        <time>2014-08-14T07:43:55Z</time>
      </trkpt>
      <trkpt lat="44.67544" lon="6.62755">
        <ele>989.13</ele>
        <time>2014-08-14T07:44:05Z</time>
      </trkpt>
      <trkpt lat="44.67524" lon="6.62744">
        <ele>991.26</ele>
        <time>2014-08-14T07:44:15Z</time>
      </trkpt>
      <trkpt lat="44.67503" lon="6.62735">
        <ele>993.13</ele>
        <time>2014-08-14T07:44:25Z</time>
      </trkpt>
      <trkpt lat="44.67484" lon="6.62724">
        <ele>994.85</ele>
        <time>2014-08-14T07:44:35Z</time>
      </trkpt>
      <trkpt lat="44.67463" lon="6.62727">
        <ele>996.15</ele>
        <time>2014-08-14T07:44:45Z</time>
      </trkpt>
      <trkpt lat="44.67444" lon="6.62742">
        <ele>997.29</ele>
        <time>2014-08-14T07:44:55Z</time>
      </trkpt>
      <trkpt lat="44.67427" lon="6.62761">
        <ele>998.85</ele>
        <time>2014-08-14T07:45:05Z</time>
      </trkpt>
      <trkpt lat="44.67411" lon="6.62785">
        <ele>1000.28</ele>
        <time>2014-08-14T07:45:15Z</time>
      </trkpt>
      <trkpt lat="44.67395" lon="6.62806">
        <ele>1001.35</ele>
        <time>2014-08-14T07:45:25Z</time>
      </trkpt>
      <trkpt lat="44.67384" lon="6.6283">
        <ele>1002.89</ele>
        <time>2014-08-14T07:45:35Z</time>
      </trkpt>
      <trkpt lat="44.6738" lon="6.62858">
        <ele>1003.9</ele>
        <time>2014-08-14T07:45:45Z</time>
      </trkpt>
      <trkpt lat="44.67378" lon="6.62883">
        <ele>1004.39</ele>
        <time>2014-08-14T07:45:53Z</time>
      </trkpt>
      <trkpt lat="44.67376" lon="6.62913">
        <ele>1005.36</ele>
        <time>2014-08-14T07:46:03Z</time>
      </trkpt>
      <trkpt lat="44.67377" lon="6.62943">
        <ele>1006.36</ele>
        <time>2014-08-14T07:46:13Z</time>
      </trkpt>
      <trkpt lat="44.67381" lon="6.62973">
        <ele>1008.14</ele>
        <time>2014-08-14T07:46:23Z</time>
      </trkpt>
      <trkpt lat="44.67384" lon="6.63003">
        <ele>1009.35</ele>
        <time>2014-08-14T07:46:33Z</time>
      </trkpt>
      <trkpt lat="44.67385" lon="6.63033">
        <ele>1010.89</ele>
        <time>2014-08-14T07:46:43Z</time>
      </trkpt>
      <trkpt lat="44.67386" lon="6.63059">
        <ele>1011.89</ele>
        <time>2014-08-14T07:46:51Z</time>
      </trkpt>
      <trkpt lat="44.67388" lon="6.63089">
        <ele>1013.15</ele>
        <time>2014-08-14T07:47:01Z</time>
      </trkpt>
      <trkpt lat="44.67385" lon="6.63115">
        <ele>1014.15</ele>
        <time>2014-08-14T07:47:09Z</time>
      </trkpt>
      <trkpt lat="44.67383" lon="6.63145">
        <ele>1015.29</ele>
        <time>2014-08-14T07:47:19Z</time>
      </trkpt>
      <trkpt lat="44.6739" lon="6.63175">
        <ele>1016.35</ele>
        <time>2014-08-14T07:47:29Z</time>
      </trkpt>
      <trkpt lat="44.674" lon="6.63207">
        <ele>1019.79</ele>
        <time>2014-08-14T07:47:35Z</time>
      </trkpt>
      <trkpt lat="44.67419" lon="6.63231">
        <ele>1023.34</ele>
        <time>2014-08-14T07:47:41Z</time>
      </trkpt>
      <trkpt lat="44.67438" lon="6.63246">
        <ele>1024.9</ele>
        <time>2014-08-14T07:47:45Z</time>
      </trkpt>
      <trkpt lat="44.67461" lon="6.63259">
        <ele>1026.04</ele>
        <time>2014-08-14T07:47:49Z</time>
      </trkpt>
      <trkpt lat="44.67479" lon="6.63272">
        <ele>1025.58</ele>
        <time>2014-08-14T07:47:53Z</time>
      </trkpt>
      <trkpt lat="44.67499" lon="6.63295">
        <ele>1025.44</ele>
        <time>2014-08-14T07:47:59Z</time>
      </trkpt>
      <trkpt lat="44.67516" lon="6.63312">
        <ele>1025.42</ele>
        <time>2014-08-14T07:48:05Z</time>
      </trkpt>
      <trkpt lat="44.67533" lon="6.63327">
        <ele>1025.42</ele>
        <time>2014-08-14T07:48:11Z</time>
      </trkpt>
      <trkpt lat="44.67551" lon="6.63347">
        <ele>1025.42</ele>
        <time>2014-08-14T07:48:17Z</time>
      </trkpt>
      <trkpt lat="44.67566" lon="6.63362">
        <ele>1025.42</ele>
        <time>2014-08-14T07:48:23Z</time>
      </trkpt>
      <trkpt lat="44.67581" lon="6.63377">
        <ele>1025.42</ele>
        <time>2014-08-14T07:48:29Z</time>
      </trkpt>
      <trkpt lat="44.676" lon="6.63396">
        <ele>1025.42</ele>
        <time>2014-08-14T07:48:41Z</time>
      </trkpt>
      <trkpt lat="44.67617" lon="6.63407">
        <ele>1025.42</ele>
        <time>2014-08-14T07:48:53Z</time>
      </trkpt>
      <trkpt lat="44.67635" lon="6.63422">
        <ele>1026.3</ele>
        <time>2014-08-14T07:49:09Z</time>
      </trkpt>
      <trkpt lat="44.67653" lon="6.63439">
        <ele>1027.17</ele>
        <time>2014-08-14T07:49:19Z</time>
      </trkpt>
      <trkpt lat="44.67668" lon="6.63456">
        <ele>1027.36</ele>
        <time>2014-08-14T07:49:23Z</time>
      </trkpt>
      <trkpt lat="44.67683" lon="6.63478">
        <ele>1027.91</ele>
        <time>2014-08-14T07:49:29Z</time>
      </trkpt>
      <trkpt lat="44.677" lon="6.63495">
        <ele>1028.39</ele>
        <time>2014-08-14T07:49:37Z</time>
      </trkpt>
      <trkpt lat="44.67718" lon="6.63521">
        <ele>1029.92</ele>
        <time>2014-08-14T07:49:53Z</time>
      </trkpt>
      <trkpt lat="44.67734" lon="6.63533">
        <ele>1031.34</ele>
        <time>2014-08-14T07:50:03Z</time>
      </trkpt>
      <trkpt lat="44.67751" lon="6.63548">
        <ele>1033.28</ele>
        <time>2014-08-14T07:50:15Z</time>
      </trkpt>
      <trkpt lat="44.67767" lon="6.63566">
        <ele>1035.34</ele>
        <time>2014-08-14T07:50:27Z</time>
      </trkpt>
      <trkpt lat="44.67775" lon="6.63589">
        <ele>1036.35</ele>
        <time>2014-08-14T07:50:35Z</time>
      </trkpt>
      <trkpt lat="44.67773" lon="6.63617">
        <ele>1037.39</ele>
        <time>2014-08-14T07:50:49Z</time>
      </trkpt>
      <trkpt lat="44.67766" lon="6.63643">
        <ele>1037.42</ele>
        <time>2014-08-14T07:51:03Z</time>
      </trkpt>
      <trkpt lat="44.67754" lon="6.63666">
        <ele>1038.36</ele>
        <time>2014-08-14T07:51:17Z</time>
      </trkpt>
      <trkpt lat="44.67747" lon="6.63692">
        <ele>1038.42</ele>
        <time>2014-08-14T07:51:31Z</time>
      </trkpt>
      <trkpt lat="44.67739" lon="6.63718">
        <ele>1038.42</ele>
        <time>2014-08-14T07:51:45Z</time>
      </trkpt>
      <trkpt lat="44.67731" lon="6.63742">
        <ele>1038.42</ele>
        <time>2014-08-14T07:51:59Z</time>
      </trkpt>
      <trkpt lat="44.67724" lon="6.63769">
        <ele>1039.39</ele>
        <time>2014-08-14T07:52:13Z</time>
      </trkpt>
      <trkpt lat="44.67718" lon="6.63797">
        <ele>1040.91</ele>
        <time>2014-08-14T07:52:27Z</time>
      </trkpt>
      <trkpt lat="44.67716" lon="6.63823">
        <ele>1043.1</ele>
        <time>2014-08-14T07:52:39Z</time>
      </trkpt>
      <trkpt lat="44.67721" lon="6.63849">
        <ele>1045.26</ele>
        <time>2014-08-14T07:52:51Z</time>
      </trkpt>
      <trkpt lat="44.6773" lon="6.63875">
        <ele>1047.28</ele>
        <time>2014-08-14T07:53:03Z</time>
      </trkpt>
      <trkpt lat="44.67736" lon="6.639">
        <ele>1049.78</ele>
        <time>2014-08-14T07:53:15Z</time>
      </trkpt>
      <trkpt lat="44.67743" lon="6.63928">
        <ele>1052.26</ele>
        <time>2014-08-14T07:53:29Z</time>
      </trkpt>
      <trkpt lat="44.67749" lon="6.63956">
        <ele>1054.85</ele>
        <time>2014-08-14T07:53:43Z</time>
      </trkpt>
      <trkpt lat="44.67754" lon="6.63982">
        <ele>1056.29</ele>
        <time>2014-08-14T07:53:55Z</time>
      </trkpt>
      <trkpt lat="44.67761" lon="6.6401">
        <ele>1057.89</ele>
        <time>2014-08-14T07:54:09Z</time>
      </trkpt>
      <trkpt lat="44.67751" lon="6.63988">
        <ele>1062.3</ele>
        <time>2014-08-14T07:55:49Z</time>
      </trkpt>
      <trkpt lat="44.67763" lon="6.63967">
        <ele>1070.07</ele>
        <time>2014-08-14T07:57:11Z</time>
      </trkpt>
      <trkpt lat="44.67754" lon="6.63939">
        <ele>1072.1</ele>
        <time>2014-08-14T07:57:21Z</time>
      </trkpt>
      <trkpt lat="44.67752" lon="6.63913">
        <ele>1073.84</ele>
        <time>2014-08-14T07:57:29Z</time>
      </trkpt>
      <trkpt lat="44.67752" lon="6.63885">
        <ele>1074.85</ele>
        <time>2014-08-14T07:57:35Z</time>
      </trkpt>
      <trkpt lat="44.67762" lon="6.63862">
        <ele>1075.35</ele>
        <time>2014-08-14T07:57:41Z</time>
      </trkpt>
      <trkpt lat="44.67777" lon="6.63847">
        <ele>1076.35</ele>
        <time>2014-08-14T07:57:49Z</time>
      </trkpt>
      <trkpt lat="44.67798" lon="6.63838">
        <ele>1077.89</ele>
        <time>2014-08-14T07:57:59Z</time>
      </trkpt>
      <trkpt lat="44.67819" lon="6.63825">
        <ele>1079.15</ele>
        <time>2014-08-14T07:58:09Z</time>
      </trkpt>
      <trkpt lat="44.6784" lon="6.63817">
        <ele>1080.29</ele>
        <time>2014-08-14T07:58:19Z</time>
      </trkpt>
      <trkpt lat="44.67859" lon="6.63812">
        <ele>1081.29</ele>
        <time>2014-08-14T07:58:27Z</time>
      </trkpt>
      <trkpt lat="44.67877" lon="6.63821">
        <ele>1082.35</ele>
        <time>2014-08-14T07:58:37Z</time>
      </trkpt>
      <trkpt lat="44.67876" lon="6.63849">
        <ele>1083.36</ele>
        <time>2014-08-14T07:58:47Z</time>
      </trkpt>
      <trkpt lat="44.67868" lon="6.63875">
        <ele>1084.39</ele>
        <time>2014-08-14T07:58:59Z</time>
      </trkpt>
      <trkpt lat="44.67864" lon="6.63903">
        <ele>1086.16</ele>
        <time>2014-08-14T07:59:13Z</time>
      </trkpt>
      <trkpt lat="44.67868" lon="6.63928">
        <ele>1087.35</ele>
        <time>2014-08-14T07:59:25Z</time>
      </trkpt>
      <trkpt lat="44.67876" lon="6.63956">
        <ele>1089.29</ele>
        <time>2014-08-14T07:59:39Z</time>
      </trkpt>
      <trkpt lat="44.67885" lon="6.6398">
        <ele>1091.29</ele>
        <time>2014-08-14T07:59:55Z</time>
      </trkpt>
      <trkpt lat="44.679" lon="6.63999">
        <ele>1093.89</ele>
        <time>2014-08-14T08:00:11Z</time>
      </trkpt>
      <trkpt lat="44.67915" lon="6.64014">
        <ele>1095.39</ele>
        <time>2014-08-14T08:00:25Z</time>
      </trkpt>
      <trkpt lat="44.67935" lon="6.64006">
        <ele>1097.14</ele>
        <time>2014-08-14T08:00:35Z</time>
      </trkpt>
      <trkpt lat="44.67933" lon="6.64031">
        <ele>1102.25</ele>
        <time>2014-08-14T08:00:59Z</time>
      </trkpt>
      <trkpt lat="44.67922" lon="6.64053">
        <ele>1104.28</ele>
        <time>2014-08-14T08:01:11Z</time>
      </trkpt>
      <trkpt lat="44.67913" lon="6.64076">
        <ele>1106.35</ele>
        <time>2014-08-14T08:01:25Z</time>
      </trkpt>
      <trkpt lat="44.67919" lon="6.64102">
        <ele>1108.35</ele>
        <time>2014-08-14T08:01:39Z</time>
      </trkpt>
      <trkpt lat="44.6793" lon="6.64124">
        <ele>1110.16</ele>
        <time>2014-08-14T08:01:53Z</time>
      </trkpt>
      <trkpt lat="44.67942" lon="6.64147">
        <ele>1111.89</ele>
        <time>2014-08-14T08:02:07Z</time>
      </trkpt>
      <trkpt lat="44.67951" lon="6.64173">
        <ele>1113.89</ele>
        <time>2014-08-14T08:02:21Z</time>
      </trkpt>
      <trkpt lat="44.67953" lon="6.64201">
        <ele>1116.1</ele>
        <time>2014-08-14T08:02:33Z</time>
      </trkpt>
      <trkpt lat="44.67962" lon="6.64227">
        <ele>1118.84</ele>
        <time>2014-08-14T08:02:47Z</time>
      </trkpt>
      <trkpt lat="44.67979" lon="6.64242">
        <ele>1121.28</ele>
        <time>2014-08-14T08:03:01Z</time>
      </trkpt>
      <trkpt lat="44.67996" lon="6.64252">
        <ele>1124.13</ele>
        <time>2014-08-14T08:03:15Z</time>
      </trkpt>
      <trkpt lat="44.68014" lon="6.64261">
        <ele>1126.15</ele>
        <time>2014-08-14T08:03:29Z</time>
      </trkpt>
      <trkpt lat="44.68032" lon="6.64274">
        <ele>1128.15</ele>
        <time>2014-08-14T08:03:43Z</time>
      </trkpt>
      <trkpt lat="44.68047" lon="6.64293">
        <ele>1130.15</ele>
        <time>2014-08-14T08:03:57Z</time>
      </trkpt>
      <trkpt lat="44.68057" lon="6.64317">
        <ele>1131.89</ele>
        <time>2014-08-14T08:04:09Z</time>
      </trkpt>
      <trkpt lat="44.68067" lon="6.64342">
        <ele>1133.85</ele>
        <time>2014-08-14T08:04:23Z</time>
      </trkpt>
      <trkpt lat="44.68075" lon="6.64368">
        <ele>1135.85</ele>
        <time>2014-08-14T08:04:37Z</time>
      </trkpt>
      <trkpt lat="44.68083" lon="6.64394">
        <ele>1137.85</ele>
        <time>2014-08-14T08:04:51Z</time>
      </trkpt>
      <trkpt lat="44.68088" lon="6.64422">
        <ele>1139.85</ele>
        <time>2014-08-14T08:05:05Z</time>
      </trkpt>
      <trkpt lat="44.68103" lon="6.64437">
        <ele>1141.89</ele>
        <time>2014-08-14T08:05:19Z</time>
      </trkpt>
      <trkpt lat="44.68109" lon="6.64411">
        <ele>1143.35</ele>
        <time>2014-08-14T08:05:33Z</time>
      </trkpt>
      <trkpt lat="44.68101" lon="6.64383">
        <ele>1145.29</ele>
        <time>2014-08-14T08:05:47Z</time>
      </trkpt>
      <trkpt lat="44.68096" lon="6.64355">
        <ele>1147.34</ele>
        <time>2014-08-14T08:06:01Z</time>
      </trkpt>
      <trkpt lat="44.68095" lon="6.64327">
        <ele>1149.35</ele>
        <time>2014-08-14T08:06:15Z</time>
      </trkpt>
      <trkpt lat="44.68096" lon="6.64302">
        <ele>1151.85</ele>
        <time>2014-08-14T08:06:29Z</time>
      </trkpt>
      <trkpt lat="44.68096" lon="6.64276">
        <ele>1153.29</ele>
        <time>2014-08-14T08:06:41Z</time>
      </trkpt>
      <trkpt lat="44.6809" lon="6.6425">
        <ele>1155.14</ele>
        <time>2014-08-14T08:06:53Z</time>
      </trkpt>
      <trkpt lat="44.68085" lon="6.64222">
        <ele>1156.89</ele>
        <time>2014-08-14T08:07:05Z</time>
      </trkpt>
      <trkpt lat="44.68102" lon="6.64231">
        <ele>1159.15</ele>
        <time>2014-08-14T08:07:21Z</time>
      </trkpt>
      <trkpt lat="44.68107" lon="6.64257">
        <ele>1160.89</ele>
        <time>2014-08-14T08:07:33Z</time>
      </trkpt>
      <trkpt lat="44.68113" lon="6.64282">
        <ele>1162.85</ele>
        <time>2014-08-14T08:07:45Z</time>
      </trkpt>
      <trkpt lat="44.6812" lon="6.64308">
        <ele>1165.14</ele>
        <time>2014-08-14T08:07:59Z</time>
      </trkpt>
      <trkpt lat="44.68128" lon="6.64332">
        <ele>1167.14</ele>
        <time>2014-08-14T08:08:11Z</time>
      </trkpt>
      <trkpt lat="44.68135" lon="6.64355">
        <ele>1168.85</ele>
        <time>2014-08-14T08:08:21Z</time>
      </trkpt>
      <trkpt lat="44.68146" lon="6.64379">
        <ele>1170.85</ele>
        <time>2014-08-14T08:08:33Z</time>
      </trkpt>
      <trkpt lat="44.68164" lon="6.64392">
        <ele>1172.89</ele>
        <time>2014-08-14T08:08:47Z</time>
      </trkpt>
      <trkpt lat="44.68183" lon="6.644">
        <ele>1174.16</ele>
        <time>2014-08-14T08:08:59Z</time>
      </trkpt>
      <trkpt lat="44.68194" lon="6.6442">
        <ele>1182.78</ele>
        <time>2014-08-14T08:12:29Z</time>
      </trkpt>
      <trkpt lat="44.68208" lon="6.64439">
        <ele>1184.35</ele>
        <time>2014-08-14T08:12:41Z</time>
      </trkpt>
      <trkpt lat="44.68223" lon="6.64458">
        <ele>1186.28</ele>
        <time>2014-08-14T08:12:53Z</time>
      </trkpt>
      <trkpt lat="44.68242" lon="6.64473">
        <ele>1187.9</ele>
        <time>2014-08-14T08:13:07Z</time>
      </trkpt>
      <trkpt lat="44.68261" lon="6.64484">
        <ele>1189.29</ele>
        <time>2014-08-14T08:13:21Z</time>
      </trkpt>
      <trkpt lat="44.68277" lon="6.64499">
        <ele>1190.29</ele>
        <time>2014-08-14T08:13:33Z</time>
      </trkpt>
      <trkpt lat="44.68284" lon="6.64525">
        <ele>1191.86</ele>
        <time>2014-08-14T08:13:45Z</time>
      </trkpt>
      <trkpt lat="44.68291" lon="6.64553">
        <ele>1193.85</ele>
        <time>2014-08-14T08:13:59Z</time>
      </trkpt>
      <trkpt lat="44.68302" lon="6.64574">
        <ele>1195.35</ele>
        <time>2014-08-14T08:14:11Z</time>
      </trkpt>
      <trkpt lat="44.68309" lon="6.64598">
        <ele>1197.28</ele>
        <time>2014-08-14T08:14:23Z</time>
      </trkpt>
      <trkpt lat="44.68316" lon="6.64623">
        <ele>1199.15</ele>
        <time>2014-08-14T08:14:35Z</time>
      </trkpt>
      <trkpt lat="44.68324" lon="6.64647">
        <ele>1200.85</ele>
        <time>2014-08-14T08:14:47Z</time>
      </trkpt>
      <trkpt lat="44.68335" lon="6.64671">
        <ele>1202.35</ele>
        <time>2014-08-14T08:14:59Z</time>
      </trkpt>
      <trkpt lat="44.68347" lon="6.64692">
        <ele>1204.28</ele>
        <time>2014-08-14T08:15:11Z</time>
      </trkpt>
      <trkpt lat="44.68351" lon="6.6472">
        <ele>1206.14</ele>
        <time>2014-08-14T08:15:23Z</time>
      </trkpt>
      <trkpt lat="44.68353" lon="6.64748">
        <ele>1207.85</ele>
        <time>2014-08-14T08:15:35Z</time>
      </trkpt>
      <trkpt lat="44.68353" lon="6.64774">
        <ele>1209.15</ele>
        <time>2014-08-14T08:15:45Z</time>
      </trkpt>
      <trkpt lat="44.68346" lon="6.64797">
        <ele>1210.35</ele>
        <time>2014-08-14T08:15:55Z</time>
      </trkpt>
      <trkpt lat="44.68333" lon="6.64821">
        <ele>1212.28</ele>
        <time>2014-08-14T08:16:07Z</time>
      </trkpt>
      <trkpt lat="44.68337" lon="6.64847">
        <ele>1213.39</ele>
        <time>2014-08-14T08:16:19Z</time>
      </trkpt>
      <trkpt lat="44.68341" lon="6.64877">
        <ele>1215.35</ele>
        <time>2014-08-14T08:16:33Z</time>
      </trkpt>
      <trkpt lat="44.68326" lon="6.64894">
        <ele>1217.26</ele>
        <time>2014-08-14T08:16:43Z</time>
      </trkpt>
      <trkpt lat="44.68312" lon="6.64915">
        <ele>1219.28</ele>
        <time>2014-08-14T08:16:55Z</time>
      </trkpt>
      <trkpt lat="44.68302" lon="6.64941">
        <ele>1221.28</ele>
        <time>2014-08-14T08:17:07Z</time>
      </trkpt>
      <trkpt lat="44.68289" lon="6.64963">
        <ele>1223.28</ele>
        <time>2014-08-14T08:17:19Z</time>
      </trkpt>
      <trkpt lat="44.68273" lon="6.64984">
        <ele>1225.85</ele>
        <time>2014-08-14T08:17:33Z</time>
      </trkpt>
      <trkpt lat="44.68257" lon="6.64997">
        <ele>1227.29</ele>
        <time>2014-08-14T08:17:45Z</time>
      </trkpt>
      <trkpt lat="44.68239" lon="6.65012">
        <ele>1229.29</ele>
        <time>2014-08-14T08:17:59Z</time>
      </trkpt>
      <trkpt lat="44.68224" lon="6.65029">
        <ele>1230.36</ele>
        <time>2014-08-14T08:18:11Z</time>
      </trkpt>
      <trkpt lat="44.6821" lon="6.65048">
        <ele>1231.9</ele>
        <time>2014-08-14T08:18:23Z</time>
      </trkpt>
      <trkpt lat="44.68195" lon="6.65066">
        <ele>1233.29</ele>
        <time>2014-08-14T08:18:35Z</time>
      </trkpt>
      <trkpt lat="44.6818" lon="6.65081">
        <ele>1234.36</ele>
        <time>2014-08-14T08:18:47Z</time>
      </trkpt>
      <trkpt lat="44.68183" lon="6.65106">
        <ele>1235.39</ele>
        <time>2014-08-14T08:19:01Z</time>
      </trkpt>
      <trkpt lat="44.68194" lon="6.65126">
        <ele>1237.15</ele>
        <time>2014-08-14T08:19:13Z</time>
      </trkpt>
      <trkpt lat="44.68207" lon="6.65145">
        <ele>1238.89</ele>
        <time>2014-08-14T08:19:25Z</time>
      </trkpt>
      <trkpt lat="44.68215" lon="6.65171">
        <ele>1240.85</ele>
        <time>2014-08-14T08:19:37Z</time>
      </trkpt>
      <trkpt lat="44.68207" lon="6.65194">
        <ele>1242.85</ele>
        <time>2014-08-14T08:19:49Z</time>
      </trkpt>
      <trkpt lat="44.68192" lon="6.65211">
        <ele>1244.29</ele>
        <time>2014-08-14T08:20:01Z</time>
      </trkpt>
      <trkpt lat="44.6818" lon="6.65235">
        <ele>1246.14</ele>
        <time>2014-08-14T08:20:15Z</time>
      </trkpt>
      <trkpt lat="44.68165" lon="6.6525">
        <ele>1250.17</ele>
        <time>2014-08-14T08:25:03Z</time>
      </trkpt>
      <trkpt lat="44.68153" lon="6.65272">
        <ele>1252.15</ele>
        <time>2014-08-14T08:25:17Z</time>
      </trkpt>
      <trkpt lat="44.68134" lon="6.6528">
        <ele>1253.36</ele>
        <time>2014-08-14T08:25:31Z</time>
      </trkpt>
      <trkpt lat="44.68116" lon="6.65284">
        <ele>1254.36</ele>
        <time>2014-08-14T08:25:45Z</time>
      </trkpt>
      <trkpt lat="44.68101" lon="6.65299">
        <ele>1255.17</ele>
        <time>2014-08-14T08:25:55Z</time>
      </trkpt>
      <trkpt lat="44.68083" lon="6.65312">
        <ele>1255.42</ele>
        <time>2014-08-14T08:26:07Z</time>
      </trkpt>
      <trkpt lat="44.68065" lon="6.65319">
        <ele>1256.41</ele>
        <time>2014-08-14T08:26:19Z</time>
      </trkpt>
      <trkpt lat="44.68046" lon="6.65332">
        <ele>1256.42</ele>
        <time>2014-08-14T08:26:33Z</time>
      </trkpt>
      <trkpt lat="44.6803" lon="6.65349">
        <ele>1256.42</ele>
        <time>2014-08-14T08:26:45Z</time>
      </trkpt>
      <trkpt lat="44.68012" lon="6.65357">
        <ele>1255.44</ele>
        <time>2014-08-14T08:26:57Z</time>
      </trkpt>
      <trkpt lat="44.67994" lon="6.6537">
        <ele>1255.42</ele>
        <time>2014-08-14T08:27:09Z</time>
      </trkpt>
      <trkpt lat="44.67987" lon="6.65396">
        <ele>1254.44</ele>
        <time>2014-08-14T08:27:21Z</time>
      </trkpt>
      <trkpt lat="44.67986" lon="6.65424">
        <ele>1253.67</ele>
        <time>2014-08-14T08:27:33Z</time>
      </trkpt>
      <trkpt lat="44.67983" lon="6.65452">
        <ele>1253.42</ele>
        <time>2014-08-14T08:27:45Z</time>
      </trkpt>
      <trkpt lat="44.67966" lon="6.65469">
        <ele>1253.42</ele>
        <time>2014-08-14T08:27:57Z</time>
      </trkpt>
      <trkpt lat="44.67948" lon="6.65475">
        <ele>1252.67</ele>
        <time>2014-08-14T08:28:09Z</time>
      </trkpt>
      <trkpt lat="44.67929" lon="6.65482">
        <ele>1253.36</ele>
        <time>2014-08-14T08:28:21Z</time>
      </trkpt>
      <trkpt lat="44.67912" lon="6.65493">
        <ele>1253.42</ele>
        <time>2014-08-14T08:28:33Z</time>
      </trkpt>
      <trkpt lat="44.67894" lon="6.65501">
        <ele>1253.42</ele>
        <time>2014-08-14T08:28:47Z</time>
      </trkpt>
      <trkpt lat="44.67875" lon="6.6551">
        <ele>1253.42</ele>
        <time>2014-08-14T08:29:01Z</time>
      </trkpt>
      <trkpt lat="44.67855" lon="6.6552">
        <ele>1253.42</ele>
        <time>2014-08-14T08:29:15Z</time>
      </trkpt>
      <trkpt lat="44.67835" lon="6.65529">
        <ele>1253.92</ele>
        <time>2014-08-14T08:29:29Z</time>
      </trkpt>
      <trkpt lat="44.67816" lon="6.65535">
        <ele>1253.48</ele>
        <time>2014-08-14T08:29:43Z</time>
      </trkpt>
      <trkpt lat="44.67796" lon="6.65538">
        <ele>1251.7</ele>
        <time>2014-08-14T08:29:57Z</time>
      </trkpt>
      <trkpt lat="44.67779" lon="6.65546">
        <ele>1250.55</ele>
        <time>2014-08-14T08:30:09Z</time>
      </trkpt>
      <trkpt lat="44.67761" lon="6.65561">
        <ele>1248.94</ele>
        <time>2014-08-14T08:30:23Z</time>
      </trkpt>
      <trkpt lat="44.67751" lon="6.65583">
        <ele>1247.68</ele>
        <time>2014-08-14T08:30:37Z</time>
      </trkpt>
      <trkpt lat="44.67752" lon="6.65611">
        <ele>1247.42</ele>
        <time>2014-08-14T08:30:49Z</time>
      </trkpt>
      <trkpt lat="44.67752" lon="6.65638">
        <ele>1246.43</ele>
        <time>2014-08-14T08:31:03Z</time>
      </trkpt>
      <trkpt lat="44.67741" lon="6.65662">
        <ele>1245.48</ele>
        <time>2014-08-14T08:31:17Z</time>
      </trkpt>
      <trkpt lat="44.67729" lon="6.65684">
        <ele>1245.42</ele>
        <time>2014-08-14T08:31:29Z</time>
      </trkpt>
      <trkpt lat="44.67714" lon="6.65701">
        <ele>1243.55</ele>
        <time>2014-08-14T08:31:43Z</time>
      </trkpt>
      <trkpt lat="44.67694" lon="6.65692">
        <ele>1240.99</ele>
        <time>2014-08-14T08:31:57Z</time>
      </trkpt>
      <trkpt lat="44.67676" lon="6.65688">
        <ele>1239.55</ele>
        <time>2014-08-14T08:32:09Z</time>
      </trkpt>
      <trkpt lat="44.67661" lon="6.65707">
        <ele>1238.45</ele>
        <time>2014-08-14T08:32:25Z</time>
      </trkpt>
      <trkpt lat="44.67654" lon="6.65733">
        <ele>1237.44</ele>
        <time>2014-08-14T08:32:39Z</time>
      </trkpt>
      <trkpt lat="44.67638" lon="6.65746">
        <ele>1236.45</ele>
        <time>2014-08-14T08:32:53Z</time>
      </trkpt>
      <trkpt lat="44.6762" lon="6.65759">
        <ele>1235.48</ele>
        <time>2014-08-14T08:33:05Z</time>
      </trkpt>
      <trkpt lat="44.676" lon="6.65761">
        <ele>1234.48</ele>
        <time>2014-08-14T08:33:17Z</time>
      </trkpt>
      <trkpt lat="44.67579" lon="6.65767">
        <ele>1233.92</ele>
        <time>2014-08-14T08:33:29Z</time>
      </trkpt>
      <trkpt lat="44.67557" lon="6.65771">
        <ele>1238.5</ele>
        <time>2014-08-14T08:33:39Z</time>
      </trkpt>
      <trkpt lat="44.67553" lon="6.65797">
        <ele>1253.22</ele>
        <time>2014-08-14T08:33:51Z</time>
      </trkpt>
      <trkpt lat="44.67558" lon="6.65827">
        <ele>1260.32</ele>
        <time>2014-08-14T08:34:01Z</time>
      </trkpt>
      <trkpt lat="44.67545" lon="6.65847">
        <ele>1264.16</ele>
        <time>2014-08-14T08:34:07Z</time>
      </trkpt>
      <trkpt lat="44.67537" lon="6.6587">
        <ele>1268.4</ele>
        <time>2014-08-14T08:34:15Z</time>
      </trkpt>
      <trkpt lat="44.6752" lon="6.65885">
        <ele>1272.55</ele>
        <time>2014-08-14T08:34:25Z</time>
      </trkpt>
      <trkpt lat="44.67501" lon="6.6589">
        <ele>1275.68</ele>
        <time>2014-08-14T08:34:33Z</time>
      </trkpt>
      <trkpt lat="44.67482" lon="6.65902">
        <ele>1281.68</ele>
        <time>2014-08-14T08:34:43Z</time>
      </trkpt>
      <trkpt lat="44.67487" lon="6.65928">
        <ele>1291.69</ele>
        <time>2014-08-14T08:34:55Z</time>
      </trkpt>
      <trkpt lat="44.67487" lon="6.65954">
        <ele>1299.74</ele>
        <time>2014-08-14T08:35:05Z</time>
      </trkpt>
      <trkpt lat="44.67483" lon="6.65984">
        <ele>1306.27</ele>
        <time>2014-08-14T08:35:15Z</time>
      </trkpt>
      <trkpt lat="44.67483" lon="6.6601">
        <ele>1311.16</ele>
        <time>2014-08-14T08:35:23Z</time>
      </trkpt>
      <trkpt lat="44.67487" lon="6.66035">
        <ele>1314.47</ele>
        <time>2014-08-14T08:35:31Z</time>
      </trkpt>
      <trkpt lat="44.67498" lon="6.66057">
        <ele>1318.42</ele>
        <time>2014-08-14T08:35:39Z</time>
      </trkpt>
      <trkpt lat="44.67513" lon="6.66072">
        <ele>1320.55</ele>
        <time>2014-08-14T08:35:45Z</time>
      </trkpt>
      <trkpt lat="44.67528" lon="6.66093">
        <ele>1324.43</ele>
        <time>2014-08-14T08:35:53Z</time>
      </trkpt>
      <trkpt lat="44.67532" lon="6.66121">
        <ele>1326.55</ele>
        <time>2014-08-14T08:35:59Z</time>
      </trkpt>
      <trkpt lat="44.67538" lon="6.66149">
        <ele>1328.69</ele>
        <time>2014-08-14T08:36:05Z</time>
      </trkpt>
      <trkpt lat="44.67559" lon="6.66162">
        <ele>1331.56</ele>
        <time>2014-08-14T08:36:13Z</time>
      </trkpt>
      <trkpt lat="44.67579" lon="6.66173">
        <ele>1333.74</ele>
        <time>2014-08-14T08:36:21Z</time>
      </trkpt>
      <trkpt lat="44.67595" lon="6.66188">
        <ele>1335.09</ele>
        <time>2014-08-14T08:36:27Z</time>
      </trkpt>
      <trkpt lat="44.67605" lon="6.66214">
        <ele>1336.84</ele>
        <time>2014-08-14T08:36:35Z</time>
      </trkpt>
      <trkpt lat="44.67594" lon="6.66237">
        <ele>1337.35</ele>
        <time>2014-08-14T08:36:41Z</time>
      </trkpt>
      <trkpt lat="44.6758" lon="6.66263">
        <ele>1337.41</ele>
        <time>2014-08-14T08:36:47Z</time>
      </trkpt>
      <trkpt lat="44.67577" lon="6.66293">
        <ele>1338.17</ele>
        <time>2014-08-14T08:36:53Z</time>
      </trkpt>
      <trkpt lat="44.67576" lon="6.66323">
        <ele>1339.16</ele>
        <time>2014-08-14T08:37:01Z</time>
      </trkpt>
      <trkpt lat="44.6758" lon="6.66351">
        <ele>1340.84</ele>
        <time>2014-08-14T08:37:09Z</time>
      </trkpt>
      <trkpt lat="44.67576" lon="6.66377">
        <ele>1342.13</ele>
        <time>2014-08-14T08:37:17Z</time>
      </trkpt>
      <trkpt lat="44.6757" lon="6.66404">
        <ele>1344.1</ele>
        <time>2014-08-14T08:37:27Z</time>
      </trkpt>
      <trkpt lat="44.67562" lon="6.66428">
        <ele>1348.78</ele>
        <time>2014-08-14T08:38:27Z</time>
      </trkpt>
      <trkpt lat="44.67554" lon="6.66452">
        <ele>1350.84</ele>
        <time>2014-08-14T08:38:37Z</time>
      </trkpt>
      <trkpt lat="44.67538" lon="6.66469">
        <ele>1352.15</ele>
        <time>2014-08-14T08:38:47Z</time>
      </trkpt>
      <trkpt lat="44.67525" lon="6.66492">
        <ele>1353.29</ele>
        <time>2014-08-14T08:38:57Z</time>
      </trkpt>
      <trkpt lat="44.67522" lon="6.6652">
        <ele>1354.35</ele>
        <time>2014-08-14T08:39:05Z</time>
      </trkpt>
      <trkpt lat="44.67528" lon="6.6655">
        <ele>1355.29</ele>
        <time>2014-08-14T08:39:13Z</time>
      </trkpt>
      <trkpt lat="44.67536" lon="6.66576">
        <ele>1356.29</ele>
        <time>2014-08-14T08:39:21Z</time>
      </trkpt>
      <trkpt lat="44.67544" lon="6.666">
        <ele>1357.29</ele>
        <time>2014-08-14T08:39:29Z</time>
      </trkpt>
      <trkpt lat="44.67552" lon="6.66623">
        <ele>1358.16</ele>
        <time>2014-08-14T08:39:37Z</time>
      </trkpt>
      <trkpt lat="44.6756" lon="6.66647">
        <ele>1358.4</ele>
        <time>2014-08-14T08:39:45Z</time>
      </trkpt>
      <trkpt lat="44.6757" lon="6.66671">
        <ele>1359.36</ele>
        <time>2014-08-14T08:39:53Z</time>
      </trkpt>
      <trkpt lat="44.67583" lon="6.6669">
        <ele>1360.17</ele>
        <time>2014-08-14T08:40:01Z</time>
      </trkpt>
      <trkpt lat="44.67592" lon="6.66711">
        <ele>1360.41</ele>
        <time>2014-08-14T08:40:09Z</time>
      </trkpt>
      <trkpt lat="44.67598" lon="6.66739">
        <ele>1361.39</ele>
        <time>2014-08-14T08:40:19Z</time>
      </trkpt>
      <trkpt lat="44.67601" lon="6.66765">
        <ele>1362.36</ele>
        <time>2014-08-14T08:40:27Z</time>
      </trkpt>
      <trkpt lat="44.67604" lon="6.66791">
        <ele>1363.17</ele>
        <time>2014-08-14T08:40:35Z</time>
      </trkpt>
      <trkpt lat="44.67605" lon="6.66816">
        <ele>1363.41</ele>
        <time>2014-08-14T08:40:43Z</time>
      </trkpt>
      <trkpt lat="44.67607" lon="6.66842">
        <ele>1364.36</ele>
        <time>2014-08-14T08:40:51Z</time>
      </trkpt>
      <trkpt lat="44.67619" lon="6.66866">
        <ele>1365.89</ele>
        <time>2014-08-14T08:41:01Z</time>
      </trkpt>
      <trkpt lat="44.67635" lon="6.66885">
        <ele>1366.9</ele>
        <time>2014-08-14T08:41:11Z</time>
      </trkpt>
      <trkpt lat="44.67647" lon="6.66909">
        <ele>1368.15</ele>
        <time>2014-08-14T08:41:21Z</time>
      </trkpt>
      <trkpt lat="44.67653" lon="6.66934">
        <ele>1372.42</ele>
        <time>2014-08-14T08:43:13Z</time>
      </trkpt>
      <trkpt lat="44.67662" lon="6.66956">
        <ele>1376.26</ele>
        <time>2014-08-14T08:44:45Z</time>
      </trkpt>
      <trkpt lat="44.67677" lon="6.66973">
        <ele>1378.13</ele>
        <time>2014-08-14T08:44:55Z</time>
      </trkpt>
      <trkpt lat="44.67689" lon="6.66997">
        <ele>1379.16</ele>
        <time>2014-08-14T08:45:05Z</time>
      </trkpt>
      <trkpt lat="44.67699" lon="6.6702">
        <ele>1379.4</ele>
        <time>2014-08-14T08:45:13Z</time>
      </trkpt>
      <trkpt lat="44.67707" lon="6.67044">
        <ele>1380.3</ele>
        <time>2014-08-14T08:45:21Z</time>
      </trkpt>
      <trkpt lat="44.67712" lon="6.67072">
        <ele>1380.91</ele>
        <time>2014-08-14T08:45:29Z</time>
      </trkpt>
      <trkpt lat="44.67719" lon="6.671">
        <ele>1381.39</ele>
        <time>2014-08-14T08:45:37Z</time>
      </trkpt>
      <trkpt lat="44.67726" lon="6.67128">
        <ele>1382.17</ele>
        <time>2014-08-14T08:45:45Z</time>
      </trkpt>
      <trkpt lat="44.67724" lon="6.6716">
        <ele>1382.41</ele>
        <time>2014-08-14T08:45:53Z</time>
      </trkpt>
      <trkpt lat="44.6772" lon="6.6719">
        <ele>1383.3</ele>
        <time>2014-08-14T08:46:01Z</time>
      </trkpt>
      <trkpt lat="44.67719" lon="6.67218">
        <ele>1383.91</ele>
        <time>2014-08-14T08:46:09Z</time>
      </trkpt>
      <trkpt lat="44.67719" lon="6.67246">
        <ele>1384.39</ele>
        <time>2014-08-14T08:46:17Z</time>
      </trkpt>
      <trkpt lat="44.67713" lon="6.67274">
        <ele>1385.29</ele>
        <time>2014-08-14T08:46:25Z</time>
      </trkpt>
      <trkpt lat="44.67708" lon="6.67301">
        <ele>1385.41</ele>
        <time>2014-08-14T08:46:33Z</time>
      </trkpt>
      <trkpt lat="44.67703" lon="6.67329">
        <ele>1386.36</ele>
        <time>2014-08-14T08:46:41Z</time>
      </trkpt>
      <trkpt lat="44.67692" lon="6.67355">
        <ele>1387.17</ele>
        <time>2014-08-14T08:46:51Z</time>
      </trkpt>
      <trkpt lat="44.67692" lon="6.67385">
        <ele>1388.35</ele>
        <time>2014-08-14T08:47:03Z</time>
      </trkpt>
      <trkpt lat="44.67704" lon="6.67409">
        <ele>1389.9</ele>
        <time>2014-08-14T08:47:15Z</time>
      </trkpt>
      <trkpt lat="44.67718" lon="6.67432">
        <ele>1391.16</ele>
        <time>2014-08-14T08:47:27Z</time>
      </trkpt>
      <trkpt lat="44.67728" lon="6.67454">
        <ele>1392.16</ele>
        <time>2014-08-14T08:47:37Z</time>
      </trkpt>
      <trkpt lat="44.67735" lon="6.67482">
        <ele>1393.35</ele>
        <time>2014-08-14T08:47:49Z</time>
      </trkpt>
      <trkpt lat="44.67748" lon="6.67501">
        <ele>1394.9</ele>
        <time>2014-08-14T08:48:01Z</time>
      </trkpt>
      <trkpt lat="44.67763" lon="6.67516">
        <ele>1396.16</ele>
        <time>2014-08-14T08:48:13Z</time>
      </trkpt>
      <trkpt lat="44.67779" lon="6.67531">
        <ele>1397.35</ele>
        <time>2014-08-14T08:48:25Z</time>
      </trkpt>
      <trkpt lat="44.67797" lon="6.67544">
        <ele>1399.29</ele>
        <time>2014-08-14T08:48:39Z</time>
      </trkpt>
      <trkpt lat="44.67815" lon="6.67552">
        <ele>1401.28</ele>
        <time>2014-08-14T08:48:51Z</time>
      </trkpt>
      <trkpt lat="44.67832" lon="6.67563">
        <ele>1403.28</ele>
        <time>2014-08-14T08:49:03Z</time>
      </trkpt>
      <trkpt lat="44.67851" lon="6.6758">
        <ele>1405.15</ele>
        <time>2014-08-14T08:49:15Z</time>
      </trkpt>
      <trkpt lat="44.67861" lon="6.67602">
        <ele>1406.15</ele>
        <time>2014-08-14T08:49:23Z</time>
      </trkpt>
      <trkpt lat="44.67877" lon="6.67623">
        <ele>1407.29</ele>
        <time>2014-08-14T08:49:35Z</time>
      </trkpt>
      <trkpt lat="44.67891" lon="6.6764">
        <ele>1407.92</ele>
        <time>2014-08-14T08:49:45Z</time>
      </trkpt>
      <trkpt lat="44.67904" lon="6.67664">
        <ele>1408.41</ele>
        <time>2014-08-14T08:49:55Z</time>
      </trkpt>
      <trkpt lat="44.67915" lon="6.67686">
        <ele>1409.17</ele>
        <time>2014-08-14T08:50:05Z</time>
      </trkpt>
      <trkpt lat="44.67923" lon="6.67711">
        <ele>1409.42</ele>
        <time>2014-08-14T08:50:17Z</time>
      </trkpt>
      <trkpt lat="44.67925" lon="6.67741">
        <ele>1410.41</ele>
        <time>2014-08-14T08:50:29Z</time>
      </trkpt>
      <trkpt lat="44.67933" lon="6.67769">
        <ele>1410.42</ele>
        <time>2014-08-14T08:50:41Z</time>
      </trkpt>
      <trkpt lat="44.67943" lon="6.67793">
        <ele>1411.39</ele>
        <time>2014-08-14T08:50:53Z</time>
      </trkpt>
      <trkpt lat="44.67957" lon="6.67812">
        <ele>1412.36</ele>
        <time>2014-08-14T08:51:11Z</time>
      </trkpt>
      <trkpt lat="44.67969" lon="6.67834">
        <ele>1414.16</ele>
        <time>2014-08-14T08:51:27Z</time>
      </trkpt>
      <trkpt lat="44.67981" lon="6.67853">
        <ele>1415.4</ele>
        <time>2014-08-14T08:51:43Z</time>
      </trkpt>
      <trkpt lat="44.67994" lon="6.67872">
        <ele>1417.35</ele>
        <time>2014-08-14T08:51:59Z</time>
      </trkpt>
      <trkpt lat="44.68006" lon="6.67892">
        <ele>1419.89</ele>
        <time>2014-08-14T08:52:15Z</time>
      </trkpt>
      <trkpt lat="44.68017" lon="6.67911">
        <ele>1422.15</ele>
        <time>2014-08-14T08:52:31Z</time>
      </trkpt>
      <trkpt lat="44.68033" lon="6.67926">
        <ele>1424.35</ele>
        <time>2014-08-14T08:52:48Z</time>
      </trkpt>
      <trkpt lat="44.68046" lon="6.67945">
        <ele>1427.28</ele>
        <time>2014-08-14T08:53:06Z</time>
      </trkpt>
      <trkpt lat="44.68063" lon="6.67958">
        <ele>1430.78</ele>
        <time>2014-08-14T08:53:24Z</time>
      </trkpt>
      <trkpt lat="44.68083" lon="6.67958">
        <ele>1433.85</ele>
        <time>2014-08-14T08:53:42Z</time>
      </trkpt>
      <trkpt lat="44.68103" lon="6.67969">
        <ele>1436.28</ele>
        <time>2014-08-14T08:53:56Z</time>
      </trkpt>
      <trkpt lat="44.68109" lon="6.67994">
        <ele>1438.28</ele>
        <time>2014-08-14T08:54:08Z</time>
      </trkpt>
      <trkpt lat="44.68117" lon="6.68018">
        <ele>1440.42</ele>
        <time>2014-08-14T08:54:38Z</time>
      </trkpt>
      <trkpt lat="44.68112" lon="6.68046">
        <ele>1442.42</ele>
        <time>2014-08-14T08:57:20Z</time>
      </trkpt>
      <trkpt lat="44.68113" lon="6.68074">
        <ele>1444.36</ele>
        <time>2014-08-14T08:57:38Z</time>
      </trkpt>
      <trkpt lat="44.68116" lon="6.68106">
        <ele>1445.29</ele>
        <time>2014-08-14T08:57:48Z</time>
      </trkpt>
      <trkpt lat="44.68114" lon="6.68134">
        <ele>1445.41</ele>
        <time>2014-08-14T08:57:54Z</time>
      </trkpt>
      <trkpt lat="44.68109" lon="6.68168">
        <ele>1445.42</ele>
        <time>2014-08-14T08:58:00Z</time>
      </trkpt>
      <trkpt lat="44.68103" lon="6.68194">
        <ele>1444.55</ele>
        <time>2014-08-14T08:58:06Z</time>
      </trkpt>
      <trkpt lat="44.68092" lon="6.68216">
        <ele>1444.44</ele>
        <time>2014-08-14T08:58:12Z</time>
      </trkpt>
      <trkpt lat="44.68076" lon="6.68237">
        <ele>1443.55</ele>
        <time>2014-08-14T08:58:18Z</time>
      </trkpt>
      <trkpt lat="44.68062" lon="6.68254">
        <ele>1443.93</ele>
        <time>2014-08-14T08:58:26Z</time>
      </trkpt>
      <trkpt lat="44.68052" lon="6.68278">
        <ele>1444.41</ele>
        <time>2014-08-14T08:58:36Z</time>
      </trkpt>
      <trkpt lat="44.68038" lon="6.68299">
        <ele>1445.3</ele>
        <time>2014-08-14T08:58:46Z</time>
      </trkpt>
      <trkpt lat="44.68033" lon="6.68325">
        <ele>1444.91</ele>
        <time>2014-08-14T08:58:54Z</time>
      </trkpt>
      <trkpt lat="44.68036" lon="6.68351">
        <ele>1441.42</ele>
        <time>2014-08-14T08:59:24Z</time>
      </trkpt>
      <trkpt lat="44.68025" lon="6.68374">
        <ele>1438.98</ele>
        <time>2014-08-14T08:59:58Z</time>
      </trkpt>
      <trkpt lat="44.68016" lon="6.68402">
        <ele>1437</ele>
        <time>2014-08-14T09:00:08Z</time>
      </trkpt>
      <trkpt lat="44.68008" lon="6.68428">
        <ele>1434.75</ele>
        <time>2014-08-14T09:00:18Z</time>
      </trkpt>
      <trkpt lat="44.68001" lon="6.68454">
        <ele>1428.83</ele>
        <time>2014-08-14T09:00:46Z</time>
      </trkpt>
      <trkpt lat="44.67998" lon="6.68479">
        <ele>1425.34</ele>
        <time>2014-08-14T09:00:56Z</time>
      </trkpt>
      <trkpt lat="44.67989" lon="6.68503">
        <ele>1421.15</ele>
        <time>2014-08-14T09:01:08Z</time>
      </trkpt>
      <trkpt lat="44.6798" lon="6.68477">
        <ele>1416.1</ele>
        <time>2014-08-14T09:01:24Z</time>
      </trkpt>
      <trkpt lat="44.67973" lon="6.68452">
        <ele>1412.78</ele>
        <time>2014-08-14T09:01:36Z</time>
      </trkpt>
      <trkpt lat="44.67964" lon="6.68473">
        <ele>1409.09</ele>
        <time>2014-08-14T09:01:50Z</time>
      </trkpt>
      <trkpt lat="44.67957" lon="6.68501">
        <ele>1405.13</ele>
        <time>2014-08-14T09:02:06Z</time>
      </trkpt>
      <trkpt lat="44.67944" lon="6.68525">
        <ele>1401.78</ele>
        <time>2014-08-14T09:02:18Z</time>
      </trkpt>
      <trkpt lat="44.67928" lon="6.68544">
        <ele>1398.1</ele>
        <time>2014-08-14T09:02:30Z</time>
      </trkpt>
      <trkpt lat="44.67913" lon="6.68559">
        <ele>1396.59</ele>
        <time>2014-08-14T09:02:38Z</time>
      </trkpt>
      <trkpt lat="44.67897" lon="6.68578">
        <ele>1394.71</ele>
        <time>2014-08-14T09:02:48Z</time>
      </trkpt>
      <trkpt lat="44.67888" lon="6.68557">
        <ele>1391.75</ele>
        <time>2014-08-14T09:03:02Z</time>
      </trkpt>
      <trkpt lat="44.67889" lon="6.68531">
        <ele>1387.7</ele>
        <time>2014-08-14T09:03:40Z</time>
      </trkpt>
      <trkpt lat="44.67868" lon="6.68535">
        <ele>1383.13</ele>
        <time>2014-08-14T09:03:54Z</time>
      </trkpt>
      <trkpt lat="44.67852" lon="6.6855">
        <ele>1380.28</ele>
        <time>2014-08-14T09:04:02Z</time>
      </trkpt>
      <trkpt lat="44.6784" lon="6.6857">
        <ele>1376.89</ele>
        <time>2014-08-14T09:04:12Z</time>
      </trkpt>
      <trkpt lat="44.67829" lon="6.68589">
        <ele>1373.15</ele>
        <time>2014-08-14T09:04:22Z</time>
      </trkpt>
      <trkpt lat="44.67815" lon="6.6861">
        <ele>1369.29</ele>
        <time>2014-08-14T09:04:32Z</time>
      </trkpt>
      <trkpt lat="44.67801" lon="6.68632">
        <ele>1365.54</ele>
        <time>2014-08-14T09:04:40Z</time>
      </trkpt>
      <trkpt lat="44.67791" lon="6.6866">
        <ele>1358.24</ele>
        <time>2014-08-14T09:04:50Z</time>
      </trkpt>
      <trkpt lat="44.67786" lon="6.68685">
        <ele>1344.35</ele>
        <time>2014-08-14T09:05:06Z</time>
      </trkpt>
      <trkpt lat="44.67802" lon="6.68703">
        <ele>1332.42</ele>
        <time>2014-08-14T09:05:18Z</time>
      </trkpt>
      <trkpt lat="44.67813" lon="6.68724">
        <ele>1318.92</ele>
        <time>2014-08-14T09:05:31Z</time>
      </trkpt>
      <trkpt lat="44.67823" lon="6.68746">
        <ele>1309.41</ele>
        <time>2014-08-14T09:05:41Z</time>
      </trkpt>
      <trkpt lat="44.6783" lon="6.68773">
        <ele>1299.42</ele>
        <time>2014-08-14T09:05:51Z</time>
      </trkpt>
      <trkpt lat="44.6784" lon="6.68795">
        <ele>1290.55</ele>
        <time>2014-08-14T09:05:59Z</time>
      </trkpt>
      <trkpt lat="44.67854" lon="6.68821">
        <ele>1281.36</ele>
        <time>2014-08-14T09:06:09Z</time>
      </trkpt>
      <trkpt lat="44.67866" lon="6.68842">
        <ele>1271.11</ele>
        <time>2014-08-14T09:06:21Z</time>
      </trkpt>
      <trkpt lat="44.67877" lon="6.68864">
        <ele>1262.71</ele>
        <time>2014-08-14T09:06:33Z</time>
      </trkpt>
      <trkpt lat="44.67886" lon="6.68887">
        <ele>1256.56</ele>
        <time>2014-08-14T09:06:43Z</time>
      </trkpt>
      <trkpt lat="44.67868" lon="6.68891">
        <ele>1245.3</ele>
        <time>2014-08-14T09:07:07Z</time>
      </trkpt>
      <trkpt lat="44.67847" lon="6.68889">
        <ele>1241.85</ele>
        <time>2014-08-14T09:07:17Z</time>
      </trkpt>
      <trkpt lat="44.67826" lon="6.68883">
        <ele>1238.1</ele>
        <time>2014-08-14T09:07:29Z</time>
      </trkpt>
      <trkpt lat="44.67808" lon="6.68876">
        <ele>1235.09</ele>
        <time>2014-08-14T09:07:41Z</time>
      </trkpt>
      <trkpt lat="44.67791" lon="6.68868">
        <ele>1232.25</ele>
        <time>2014-08-14T09:07:51Z</time>
      </trkpt>
      <trkpt lat="44.67771" lon="6.68864">
        <ele>1228.78</ele>
        <time>2014-08-14T09:08:03Z</time>
      </trkpt>
      <trkpt lat="44.67756" lon="6.68879">
        <ele>1226.09</ele>
        <time>2014-08-14T09:08:13Z</time>
      </trkpt>
      <trkpt lat="44.67764" lon="6.68904">
        <ele>1220.54</ele>
        <time>2014-08-14T09:08:23Z</time>
      </trkpt>
      <trkpt lat="44.6778" lon="6.68921">
        <ele>1212.06</ele>
        <time>2014-08-14T09:08:35Z</time>
      </trkpt>
      <trkpt lat="44.67791" lon="6.68945">
        <ele>1202.5</ele>
        <time>2014-08-14T09:08:49Z</time>
      </trkpt>
      <trkpt lat="44.67802" lon="6.68969">
        <ele>1194.56</ele>
        <time>2014-08-14T09:09:01Z</time>
      </trkpt>
      <trkpt lat="44.67805" lon="6.68994">
        <ele>1188.55</ele>
        <time>2014-08-14T09:09:11Z</time>
      </trkpt>
      <trkpt lat="44.67809" lon="6.69027">
        <ele>1183.43</ele>
        <time>2014-08-14T09:09:21Z</time>
      </trkpt>
      <trkpt lat="44.67813" lon="6.69052">
        <ele>1180.36</ele>
        <time>2014-08-14T09:09:29Z</time>
      </trkpt>
      <trkpt lat="44.67819" lon="6.69078">
        <ele>1177.35</ele>
        <time>2014-08-14T09:09:37Z</time>
      </trkpt>
      <trkpt lat="44.67827" lon="6.69104">
        <ele>1174.76</ele>
        <time>2014-08-14T09:09:47Z</time>
      </trkpt>
      <trkpt lat="44.67833" lon="6.69136">
        <ele>1170.35</ele>
        <time>2014-08-14T09:09:59Z</time>
      </trkpt>
      <trkpt lat="44.67829" lon="6.69164">
        <ele>1167.41</ele>
        <time>2014-08-14T09:10:05Z</time>
      </trkpt>
      <trkpt lat="44.67826" lon="6.69192">
        <ele>1164.42</ele>
        <time>2014-08-14T09:10:11Z</time>
      </trkpt>
      <trkpt lat="44.67833" lon="6.6922">
        <ele>1160.42</ele>
        <time>2014-08-14T09:10:19Z</time>
      </trkpt>
      <trkpt lat="44.67838" lon="6.69245">
        <ele>1151.42</ele>
        <time>2014-08-14T09:10:35Z</time>
      </trkpt>
      <trkpt lat="44.67824" lon="6.69267">
        <ele>1148.42</ele>
        <time>2014-08-14T09:10:41Z</time>
      </trkpt>
      <trkpt lat="44.67812" lon="6.69286">
        <ele>1145.17</ele>
        <time>2014-08-14T09:10:49Z</time>
      </trkpt>
      <trkpt lat="44.67811" lon="6.69314">
        <ele>1139.12</ele>
        <time>2014-08-14T09:11:21Z</time>
      </trkpt>
      <trkpt lat="44.67811" lon="6.6934">
        <ele>1136.09</ele>
        <time>2014-08-14T09:11:33Z</time>
      </trkpt>
      <trkpt lat="44.67821" lon="6.69366">
        <ele>1133.96</ele>
        <time>2014-08-14T09:11:45Z</time>
      </trkpt>
      <trkpt lat="44.67839" lon="6.69376">
        <ele>1132.49</ele>
        <time>2014-08-14T09:11:59Z</time>
      </trkpt>
      <trkpt lat="44.67849" lon="6.694">
        <ele>1131.67</ele>
        <time>2014-08-14T09:12:11Z</time>
      </trkpt>
      <trkpt lat="44.67854" lon="6.69426">
        <ele>1130.68</ele>
        <time>2014-08-14T09:12:21Z</time>
      </trkpt>
      <trkpt lat="44.67865" lon="6.69447">
        <ele>1129.55</ele>
        <time>2014-08-14T09:12:33Z</time>
      </trkpt>
      <trkpt lat="44.67875" lon="6.69469">
        <ele>1128.55</ele>
        <time>2014-08-14T09:12:47Z</time>
      </trkpt>
      <trkpt lat="44.67878" lon="6.69499">
        <ele>1129.17</ele>
        <time>2014-08-14T09:13:03Z</time>
      </trkpt>
      <trkpt lat="44.6786" lon="6.69516">
        <ele>1131.1</ele>
        <time>2014-08-14T09:13:15Z</time>
      </trkpt>
      <trkpt lat="44.67862" lon="6.6949">
        <ele>1127.92</ele>
        <time>2014-08-14T09:17:25Z</time>
      </trkpt>
      <trkpt lat="44.67845" lon="6.69505">
        <ele>1125.68</ele>
        <time>2014-08-14T09:18:07Z</time>
      </trkpt>
      <trkpt lat="44.67826" lon="6.69494">
        <ele>1120.41</ele>
        <time>2014-08-14T09:18:19Z</time>
      </trkpt>
      <trkpt lat="44.67803" lon="6.69484">
        <ele>1117.86</ele>
        <time>2014-08-14T09:18:27Z</time>
      </trkpt>
      <trkpt lat="44.67785" lon="6.69464">
        <ele>1116.1</ele>
        <time>2014-08-14T09:18:33Z</time>
      </trkpt>
      <trkpt lat="44.67766" lon="6.69443">
        <ele>1115.51</ele>
        <time>2014-08-14T09:18:39Z</time>
      </trkpt>
      <trkpt lat="44.6775" lon="6.69417">
        <ele>1116.31</ele>
        <time>2014-08-14T09:18:45Z</time>
      </trkpt>
      <trkpt lat="44.67733" lon="6.69394">
        <ele>1117.28</ele>
        <time>2014-08-14T09:18:51Z</time>
      </trkpt>
      <trkpt lat="44.67715" lon="6.69379">
        <ele>1118.28</ele>
        <time>2014-08-14T09:18:57Z</time>
      </trkpt>
      <trkpt lat="44.67695" lon="6.69379">
        <ele>1119.28</ele>
        <time>2014-08-14T09:19:03Z</time>
      </trkpt>
      <trkpt lat="44.67676" lon="6.69389">
        <ele>1119.4</ele>
        <time>2014-08-14T09:19:09Z</time>
      </trkpt>
      <trkpt lat="44.67654" lon="6.69376">
        <ele>1118.54</ele>
        <time>2014-08-14T09:19:17Z</time>
      </trkpt>
      <trkpt lat="44.67644" lon="6.69353">
        <ele>1117.06</ele>
        <time>2014-08-14T09:19:23Z</time>
      </trkpt>
      <trkpt lat="44.67632" lon="6.69327">
        <ele>1114.13</ele>
        <time>2014-08-14T09:19:33Z</time>
      </trkpt>
      <trkpt lat="44.67615" lon="6.69314">
        <ele>1112.09</ele>
        <time>2014-08-14T09:19:41Z</time>
      </trkpt>
      <trkpt lat="44.67598" lon="6.69306">
        <ele>1110</ele>
        <time>2014-08-14T09:19:51Z</time>
      </trkpt>
      <trkpt lat="44.67586" lon="6.69284">
        <ele>1107.57</ele>
        <time>2014-08-14T09:20:05Z</time>
      </trkpt>
      <trkpt lat="44.67575" lon="6.69263">
        <ele>1106.44</ele>
        <time>2014-08-14T09:20:19Z</time>
      </trkpt>
      <trkpt lat="44.67556" lon="6.69252">
        <ele>1107.17</ele>
        <time>2014-08-14T09:20:33Z</time>
      </trkpt>
      <trkpt lat="44.67539" lon="6.69237">
        <ele>1109.78</ele>
        <time>2014-08-14T09:20:47Z</time>
      </trkpt>
      <trkpt lat="44.67527" lon="6.69218">
        <ele>1112.26</ele>
        <time>2014-08-14T09:21:01Z</time>
      </trkpt>
      <trkpt lat="44.6752" lon="6.69192">
        <ele>1115.13</ele>
        <time>2014-08-14T09:21:15Z</time>
      </trkpt>
      <trkpt lat="44.67515" lon="6.69164">
        <ele>1117.85</ele>
        <time>2014-08-14T09:21:29Z</time>
      </trkpt>
      <trkpt lat="44.67508" lon="6.69138">
        <ele>1119.89</ele>
        <time>2014-08-14T09:21:43Z</time>
      </trkpt>
      <trkpt lat="44.67492" lon="6.69123">
        <ele>1121.35</ele>
        <time>2014-08-14T09:21:57Z</time>
      </trkpt>
      <trkpt lat="44.67474" lon="6.6911">
        <ele>1121.42</ele>
        <time>2014-08-14T09:22:15Z</time>
      </trkpt>
      <trkpt lat="44.67461" lon="6.69093">
        <ele>1122.39</ele>
        <time>2014-08-14T09:22:33Z</time>
      </trkpt>
      <trkpt lat="44.67443" lon="6.69085">
        <ele>1124.15</ele>
        <time>2014-08-14T09:22:45Z</time>
      </trkpt>
      <trkpt lat="44.67426" lon="6.69074">
        <ele>1126.78</ele>
        <time>2014-08-14T09:22:59Z</time>
      </trkpt>
      <trkpt lat="44.6741" lon="6.69061">
        <ele>1129.13</ele>
        <time>2014-08-14T09:23:13Z</time>
      </trkpt>
      <trkpt lat="44.67393" lon="6.6905">
        <ele>1130.17</ele>
        <time>2014-08-14T09:23:29Z</time>
      </trkpt>
      <trkpt lat="44.67409" lon="6.69037">
        <ele>1128.29</ele>
        <time>2014-08-14T09:23:43Z</time>
      </trkpt>
      <trkpt lat="44.67443" lon="6.69037">
        <ele>1126.39</ele>
        <time>2014-08-14T09:23:47Z</time>
      </trkpt>
      <trkpt lat="44.67465" lon="6.69039">
        <ele>1124.41</ele>
        <time>2014-08-14T09:23:51Z</time>
      </trkpt>
      <trkpt lat="44.67483" lon="6.69031">
        <ele>1121.42</ele>
        <time>2014-08-14T09:23:57Z</time>
      </trkpt>
      <trkpt lat="44.67502" lon="6.69022">
        <ele>1118.11</ele>
        <time>2014-08-14T09:24:07Z</time>
      </trkpt>
      <trkpt lat="44.67512" lon="6.69001">
        <ele>1116.09</ele>
        <time>2014-08-14T09:24:15Z</time>
      </trkpt>
      <trkpt lat="44.67502" lon="6.68977">
        <ele>1113.6</ele>
        <time>2014-08-14T09:24:25Z</time>
      </trkpt>
      <trkpt lat="44.67482" lon="6.68975">
        <ele>1112.46</ele>
        <time>2014-08-14T09:24:35Z</time>
      </trkpt>
      <trkpt lat="44.67465" lon="6.68967">
        <ele>1110.95</ele>
        <time>2014-08-14T09:24:45Z</time>
      </trkpt>
      <trkpt lat="44.67445" lon="6.68956">
        <ele>1108.81</ele>
        <time>2014-08-14T09:24:55Z</time>
      </trkpt>
      <trkpt lat="44.67428" lon="6.68947">
        <ele>1106.71</ele>
        <time>2014-08-14T09:25:05Z</time>
      </trkpt>
      <trkpt lat="44.67409" lon="6.68936">
        <ele>1106.43</ele>
        <time>2014-08-14T09:25:17Z</time>
      </trkpt>
      <trkpt lat="44.67394" lon="6.68917">
        <ele>1104.98</ele>
        <time>2014-08-14T09:25:27Z</time>
      </trkpt>
      <trkpt lat="44.67383" lon="6.68894">
        <ele>1103.55</ele>
        <time>2014-08-14T09:25:39Z</time>
      </trkpt>
      <trkpt lat="44.67375" lon="6.6887">
        <ele>1102.49</ele>
        <time>2014-08-14T09:25:49Z</time>
      </trkpt>
      <trkpt lat="44.67366" lon="6.68842">
        <ele>1101.55</ele>
        <time>2014-08-14T09:25:59Z</time>
      </trkpt>
      <trkpt lat="44.67359" lon="6.68816">
        <ele>1101.42</ele>
        <time>2014-08-14T09:26:09Z</time>
      </trkpt>
      <trkpt lat="44.67349" lon="6.68795">
        <ele>1101.42</ele>
        <time>2014-08-14T09:26:19Z</time>
      </trkpt>
      <trkpt lat="44.67341" lon="6.68767">
        <ele>1101.42</ele>
        <time>2014-08-14T09:26:31Z</time>
      </trkpt>
      <trkpt lat="44.67337" lon="6.68737">
        <ele>1100.67</ele>
        <time>2014-08-14T09:26:43Z</time>
      </trkpt>
      <trkpt lat="44.6734" lon="6.68711">
        <ele>1101.31</ele>
        <time>2014-08-14T09:26:51Z</time>
      </trkpt>
      <trkpt lat="44.67342" lon="6.68683">
        <ele>1101.92</ele>
        <time>2014-08-14T09:27:01Z</time>
      </trkpt>
      <trkpt lat="44.67335" lon="6.68658">
        <ele>1103.16</ele>
        <time>2014-08-14T09:27:13Z</time>
      </trkpt>
      <trkpt lat="44.67327" lon="6.68634">
        <ele>1105.78</ele>
        <time>2014-08-14T09:27:25Z</time>
      </trkpt>
      <trkpt lat="44.67327" lon="6.68608">
        <ele>1107.84</ele>
        <time>2014-08-14T09:27:35Z</time>
      </trkpt>
      <trkpt lat="44.67335" lon="6.68582">
        <ele>1109.63</ele>
        <time>2014-08-14T09:27:43Z</time>
      </trkpt>
      <trkpt lat="44.67348" lon="6.6855">
        <ele>1111.7</ele>
        <time>2014-08-14T09:27:49Z</time>
      </trkpt>
      <trkpt lat="44.67353" lon="6.68522">
        <ele>1113.71</ele>
        <time>2014-08-14T09:27:55Z</time>
      </trkpt>
      <trkpt lat="44.67349" lon="6.68494">
        <ele>1115.75</ele>
        <time>2014-08-14T09:28:03Z</time>
      </trkpt>
      <trkpt lat="44.67335" lon="6.68471">
        <ele>1118.09</ele>
        <time>2014-08-14T09:28:13Z</time>
      </trkpt>
      <trkpt lat="44.67316" lon="6.68458">
        <ele>1120.82</ele>
        <time>2014-08-14T09:28:23Z</time>
      </trkpt>
      <trkpt lat="44.67299" lon="6.68449">
        <ele>1121.38</ele>
        <time>2014-08-14T09:28:31Z</time>
      </trkpt>
      <trkpt lat="44.67278" lon="6.68441">
        <ele>1121.42</ele>
        <time>2014-08-14T09:28:41Z</time>
      </trkpt>
      <trkpt lat="44.67263" lon="6.68424">
        <ele>1120.55</ele>
        <time>2014-08-14T09:28:51Z</time>
      </trkpt>
      <trkpt lat="44.67251" lon="6.68404">
        <ele>1119.49</ele>
        <time>2014-08-14T09:28:59Z</time>
      </trkpt>
      <trkpt lat="44.67234" lon="6.68394">
        <ele>1118.45</ele>
        <time>2014-08-14T09:29:11Z</time>
      </trkpt>
      <trkpt lat="44.67219" lon="6.68379">
        <ele>1117.43</ele>
        <time>2014-08-14T09:29:25Z</time>
      </trkpt>
      <trkpt lat="44.67204" lon="6.68364">
        <ele>1117.42</ele>
        <time>2014-08-14T09:29:39Z</time>
      </trkpt>
      <trkpt lat="44.67188" lon="6.68346">
        <ele>1118.41</ele>
        <time>2014-08-14T09:29:53Z</time>
      </trkpt>
      <trkpt lat="44.67172" lon="6.68331">
        <ele>1118.42</ele>
        <time>2014-08-14T09:30:07Z</time>
      </trkpt>
      <trkpt lat="44.67153" lon="6.68323">
        <ele>1118.18</ele>
        <time>2014-08-14T09:30:23Z</time>
      </trkpt>
      <trkpt lat="44.67135" lon="6.68312">
        <ele>1118.42</ele>
        <time>2014-08-14T09:30:39Z</time>
      </trkpt>
      <trkpt lat="44.67116" lon="6.68303">
        <ele>1118.42</ele>
        <time>2014-08-14T09:30:55Z</time>
      </trkpt>
      <trkpt lat="44.67099" lon="6.68293">
        <ele>1119.39</ele>
        <time>2014-08-14T09:31:07Z</time>
      </trkpt>
      <trkpt lat="44.6708" lon="6.68288">
        <ele>1119.42</ele>
        <time>2014-08-14T09:31:21Z</time>
      </trkpt>
      <trkpt lat="44.67062" lon="6.68297">
        <ele>1118.48</ele>
        <time>2014-08-14T09:33:37Z</time>
      </trkpt>
      <trkpt lat="44.67044" lon="6.68297">
        <ele>1117.44</ele>
        <time>2014-08-14T09:33:49Z</time>
      </trkpt>
      <trkpt lat="44.67027" lon="6.6828">
        <ele>1116.43</ele>
        <time>2014-08-14T09:34:03Z</time>
      </trkpt>
      <trkpt lat="44.6701" lon="6.68267">
        <ele>1116.42</ele>
        <time>2014-08-14T09:34:17Z</time>
      </trkpt>
      <trkpt lat="44.66994" lon="6.68252">
        <ele>1116.92</ele>
        <time>2014-08-14T09:34:31Z</time>
      </trkpt>
      <trkpt lat="44.66977" lon="6.68239">
        <ele>1117.42</ele>
        <time>2014-08-14T09:34:47Z</time>
      </trkpt>
      <trkpt lat="44.66959" lon="6.68224">
        <ele>1117.42</ele>
        <time>2014-08-14T09:35:03Z</time>
      </trkpt>
      <trkpt lat="44.66943" lon="6.68209">
        <ele>1118.36</ele>
        <time>2014-08-14T09:35:19Z</time>
      </trkpt>
      <trkpt lat="44.66931" lon="6.6819">
        <ele>1120.76</ele>
        <time>2014-08-14T09:35:31Z</time>
      </trkpt>
      <trkpt lat="44.6692" lon="6.68166">
        <ele>1126.93</ele>
        <time>2014-08-14T09:35:43Z</time>
      </trkpt>
      <trkpt lat="44.66908" lon="6.68147">
        <ele>1136.26</ele>
        <time>2014-08-14T09:35:57Z</time>
      </trkpt>
      <trkpt lat="44.66895" lon="6.68128">
        <ele>1147.71</ele>
        <time>2014-08-14T09:36:11Z</time>
      </trkpt>
      <trkpt lat="44.66879" lon="6.6811">
        <ele>1157.13</ele>
        <time>2014-08-14T09:36:25Z</time>
      </trkpt>
      <trkpt lat="44.66862" lon="6.68095">
        <ele>1161.9</ele>
        <time>2014-08-14T09:36:33Z</time>
      </trkpt>
      <trkpt lat="44.66846" lon="6.68076">
        <ele>1166.9</ele>
        <time>2014-08-14T09:36:43Z</time>
      </trkpt>
      <trkpt lat="44.6683" lon="6.68061">
        <ele>1169.48</ele>
        <time>2014-08-14T09:36:49Z</time>
      </trkpt>
      <trkpt lat="44.6681" lon="6.68042">
        <ele>1174.55</ele>
        <time>2014-08-14T09:36:55Z</time>
      </trkpt>
      <trkpt lat="44.66793" lon="6.68025">
        <ele>1182.45</ele>
        <time>2014-08-14T09:36:59Z</time>
      </trkpt>
      <trkpt lat="44.66771" lon="6.67992">
        <ele>1188.68</ele>
        <time>2014-08-14T09:37:03Z</time>
      </trkpt>
      <trkpt lat="44.66758" lon="6.67971">
        <ele>1191.05</ele>
        <time>2014-08-14T09:37:05Z</time>
      </trkpt>
      <trkpt lat="44.66744" lon="6.67952">
        <ele>1192.74</ele>
        <time>2014-08-14T09:37:07Z</time>
      </trkpt>
      <trkpt lat="44.66732" lon="6.67926">
        <ele>1194.08</ele>
        <time>2014-08-14T09:37:09Z</time>
      </trkpt>
      <trkpt lat="44.66725" lon="6.67896">
        <ele>1195.25</ele>
        <time>2014-08-14T09:37:11Z</time>
      </trkpt>
      <trkpt lat="44.66714" lon="6.67866">
        <ele>1196.34</ele>
        <time>2014-08-14T09:37:13Z</time>
      </trkpt>
      <trkpt lat="44.66701" lon="6.67838">
        <ele>1196.38</ele>
        <time>2014-08-14T09:37:15Z</time>
      </trkpt>
      <trkpt lat="44.66687" lon="6.67812">
        <ele>1196.4</ele>
        <time>2014-08-14T09:37:17Z</time>
      </trkpt>
      <trkpt lat="44.66673" lon="6.67784">
        <ele>1195.91</ele>
        <time>2014-08-14T09:37:19Z</time>
      </trkpt>
      <trkpt lat="44.66661" lon="6.67756">
        <ele>1195.67</ele>
        <time>2014-08-14T09:37:21Z</time>
      </trkpt>
      <trkpt lat="44.66649" lon="6.67728">
        <ele>1196.04</ele>
        <time>2014-08-14T09:37:23Z</time>
      </trkpt>
      <trkpt lat="44.66638" lon="6.67703">
        <ele>1196.23</ele>
        <time>2014-08-14T09:37:25Z</time>
      </trkpt>
      <trkpt lat="44.66626" lon="6.67679">
        <ele>1195.83</ele>
        <time>2014-08-14T09:37:27Z</time>
      </trkpt>
      <trkpt lat="44.66614" lon="6.6766">
        <ele>1194.62</ele>
        <time>2014-08-14T09:37:29Z</time>
      </trkpt>
      <trkpt lat="44.66594" lon="6.67628">
        <ele>1193.22</ele>
        <time>2014-08-14T09:37:33Z</time>
      </trkpt>
      <trkpt lat="44.66585" lon="6.67598">
        <ele>1191.37</ele>
        <time>2014-08-14T09:37:37Z</time>
      </trkpt>
      <trkpt lat="44.66584" lon="6.67563">
        <ele>1187.29</ele>
        <time>2014-08-14T09:37:43Z</time>
      </trkpt>
      <trkpt lat="44.66579" lon="6.67533">
        <ele>1186.03</ele>
        <time>2014-08-14T09:37:49Z</time>
      </trkpt>
      <trkpt lat="44.66561" lon="6.67507">
        <ele>1182.75</ele>
        <time>2014-08-14T09:37:55Z</time>
      </trkpt>
      <trkpt lat="44.66544" lon="6.67484">
        <ele>1179.34</ele>
        <time>2014-08-14T09:38:01Z</time>
      </trkpt>
      <trkpt lat="44.66551" lon="6.67449">
        <ele>1178.54</ele>
        <time>2014-08-14T09:38:07Z</time>
      </trkpt>
      <trkpt lat="44.66545" lon="6.67415">
        <ele>1180.06</ele>
        <time>2014-08-14T09:38:13Z</time>
      </trkpt>
      <trkpt lat="44.66544" lon="6.67385">
        <ele>1180.38</ele>
        <time>2014-08-14T09:38:19Z</time>
      </trkpt>
      <trkpt lat="44.66546" lon="6.67353">
        <ele>1180.42</ele>
        <time>2014-08-14T09:38:25Z</time>
      </trkpt>
      <trkpt lat="44.66545" lon="6.67327">
        <ele>1180.42</ele>
        <time>2014-08-14T09:38:31Z</time>
      </trkpt>
      <trkpt lat="44.6654" lon="6.67297">
        <ele>1180.42</ele>
        <time>2014-08-14T09:38:37Z</time>
      </trkpt>
      <trkpt lat="44.66535" lon="6.67267">
        <ele>1180.42</ele>
        <time>2014-08-14T09:38:43Z</time>
      </trkpt>
      <trkpt lat="44.66532" lon="6.67233">
        <ele>1180.42</ele>
        <time>2014-08-14T09:38:49Z</time>
      </trkpt>
      <trkpt lat="44.66537" lon="6.67198">
        <ele>1179.05</ele>
        <time>2014-08-14T09:38:55Z</time>
      </trkpt>
      <trkpt lat="44.6654" lon="6.67162">
        <ele>1178.5</ele>
        <time>2014-08-14T09:39:01Z</time>
      </trkpt>
      <trkpt lat="44.66543" lon="6.67132">
        <ele>1178.43</ele>
        <time>2014-08-14T09:39:07Z</time>
      </trkpt>
      <trkpt lat="44.66546" lon="6.67106">
        <ele>1177.67</ele>
        <time>2014-08-14T09:39:13Z</time>
      </trkpt>
      <trkpt lat="44.66549" lon="6.67072">
        <ele>1177.45</ele>
        <time>2014-08-14T09:39:19Z</time>
      </trkpt>
      <trkpt lat="44.66546" lon="6.67042">
        <ele>1177.42</ele>
        <time>2014-08-14T09:39:25Z</time>
      </trkpt>
      <trkpt lat="44.66549" lon="6.67014">
        <ele>1177.42</ele>
        <time>2014-08-14T09:39:31Z</time>
      </trkpt>
      <trkpt lat="44.66557" lon="6.66986">
        <ele>1177.42</ele>
        <time>2014-08-14T09:39:37Z</time>
      </trkpt>
      <trkpt lat="44.66564" lon="6.66956">
        <ele>1177.92</ele>
        <time>2014-08-14T09:39:43Z</time>
      </trkpt>
      <trkpt lat="44.66559" lon="6.66928">
        <ele>1178.36</ele>
        <time>2014-08-14T09:39:49Z</time>
      </trkpt>
      <trkpt lat="44.66543" lon="6.66915">
        <ele>1179.16</ele>
        <time>2014-08-14T09:39:55Z</time>
      </trkpt>
      <trkpt lat="44.66524" lon="6.66911">
        <ele>1179.39</ele>
        <time>2014-08-14T09:40:01Z</time>
      </trkpt>
      <trkpt lat="44.66496" lon="6.66917">
        <ele>1177.67</ele>
        <time>2014-08-14T09:40:07Z</time>
      </trkpt>
      <trkpt lat="44.66467" lon="6.66926">
        <ele>1174.98</ele>
        <time>2014-08-14T09:40:11Z</time>
      </trkpt>
      <trkpt lat="44.66433" lon="6.66932">
        <ele>1173.06</ele>
        <time>2014-08-14T09:40:15Z</time>
      </trkpt>
      <trkpt lat="44.66402" lon="6.66919">
        <ele>1172.58</ele>
        <time>2014-08-14T09:40:19Z</time>
      </trkpt>
      <trkpt lat="44.66388" lon="6.66881">
        <ele>1171.96</ele>
        <time>2014-08-14T09:40:23Z</time>
      </trkpt>
      <trkpt lat="44.66381" lon="6.66855">
        <ele>1171.69</ele>
        <time>2014-08-14T09:40:25Z</time>
      </trkpt>
      <trkpt lat="44.6638" lon="6.66825">
        <ele>1171.06</ele>
        <time>2014-08-14T09:40:27Z</time>
      </trkpt>
      <trkpt lat="44.66381" lon="6.66795">
        <ele>1170.24</ele>
        <time>2014-08-14T09:40:29Z</time>
      </trkpt>
      <trkpt lat="44.66383" lon="6.66765">
        <ele>1169.33</ele>
        <time>2014-08-14T09:40:31Z</time>
      </trkpt>
      <trkpt lat="44.66387" lon="6.66739">
        <ele>1168.38</ele>
        <time>2014-08-14T09:40:33Z</time>
      </trkpt>
      <trkpt lat="44.66389" lon="6.66713">
        <ele>1167.9</ele>
        <time>2014-08-14T09:40:35Z</time>
      </trkpt>
      <trkpt lat="44.66392" lon="6.66681">
        <ele>1166.29</ele>
        <time>2014-08-14T09:40:39Z</time>
      </trkpt>
      <trkpt lat="44.66398" lon="6.66647">
        <ele>1162.9</ele>
        <time>2014-08-14T09:40:45Z</time>
      </trkpt>
      <trkpt lat="44.66403" lon="6.66619">
        <ele>1160.86</ele>
        <time>2014-08-14T09:40:51Z</time>
      </trkpt>
      <trkpt lat="44.66404" lon="6.66593">
        <ele>1158.53</ele>
        <time>2014-08-14T09:40:55Z</time>
      </trkpt>
      <trkpt lat="44.66403" lon="6.66557">
        <ele>1157.7</ele>
        <time>2014-08-14T09:40:59Z</time>
      </trkpt>
      <trkpt lat="44.66384" lon="6.66525">
        <ele>1157.49</ele>
        <time>2014-08-14T09:41:03Z</time>
      </trkpt>
      <trkpt lat="44.6636" lon="6.66499">
        <ele>1158.19</ele>
        <time>2014-08-14T09:41:07Z</time>
      </trkpt>
      <trkpt lat="44.66328" lon="6.66484">
        <ele>1159.11</ele>
        <time>2014-08-14T09:41:11Z</time>
      </trkpt>
      <trkpt lat="44.66309" lon="6.66482">
        <ele>1158.77</ele>
        <time>2014-08-14T09:41:13Z</time>
      </trkpt>
      <trkpt lat="44.6629" lon="6.6648">
        <ele>1157.59</ele>
        <time>2014-08-14T09:41:15Z</time>
      </trkpt>
      <trkpt lat="44.6627" lon="6.66482">
        <ele>1156.01</ele>
        <time>2014-08-14T09:41:17Z</time>
      </trkpt>
      <trkpt lat="44.66248" lon="6.6649">
        <ele>1154.21</ele>
        <time>2014-08-14T09:41:19Z</time>
      </trkpt>
      <trkpt lat="44.66228" lon="6.66499">
        <ele>1151.82</ele>
        <time>2014-08-14T09:41:21Z</time>
      </trkpt>
      <trkpt lat="44.66198" lon="6.66503">
        <ele>1147.02</ele>
        <time>2014-08-14T09:41:25Z</time>
      </trkpt>
      <trkpt lat="44.66181" lon="6.66486">
        <ele>1143.15</ele>
        <time>2014-08-14T09:41:33Z</time>
      </trkpt>
      <trkpt lat="44.66175" lon="6.6646">
        <ele>1142.01</ele>
        <time>2014-08-14T09:41:39Z</time>
      </trkpt>
      <trkpt lat="44.66169" lon="6.6643">
        <ele>1139.24</ele>
        <time>2014-08-14T09:41:45Z</time>
      </trkpt>
      <trkpt lat="44.66163" lon="6.66404">
        <ele>1133.88</ele>
        <time>2014-08-14T09:41:49Z</time>
      </trkpt>
      <trkpt lat="44.66157" lon="6.6637">
        <ele>1130.04</ele>
        <time>2014-08-14T09:41:53Z</time>
      </trkpt>
      <trkpt lat="44.66151" lon="6.66327">
        <ele>1128.07</ele>
        <time>2014-08-14T09:41:57Z</time>
      </trkpt>
      <trkpt lat="44.66147" lon="6.66301">
        <ele>1127.25</ele>
        <time>2014-08-14T09:41:59Z</time>
      </trkpt>
      <trkpt lat="44.66139" lon="6.66254">
        <ele>1124.63</ele>
        <time>2014-08-14T09:42:03Z</time>
      </trkpt>
      <trkpt lat="44.66134" lon="6.66229">
        <ele>1123.52</ele>
        <time>2014-08-14T09:42:05Z</time>
      </trkpt>
      <trkpt lat="44.66126" lon="6.66183">
        <ele>1121.45</ele>
        <time>2014-08-14T09:42:09Z</time>
      </trkpt>
      <trkpt lat="44.66125" lon="6.66158">
        <ele>1120.93</ele>
        <time>2014-08-14T09:42:11Z</time>
      </trkpt>
      <trkpt lat="44.66126" lon="6.66132">
        <ele>1120.18</ele>
        <time>2014-08-14T09:42:13Z</time>
      </trkpt>
      <trkpt lat="44.66127" lon="6.66104">
        <ele>1119.8</ele>
        <time>2014-08-14T09:42:15Z</time>
      </trkpt>
      <trkpt lat="44.66124" lon="6.66076">
        <ele>1119.61</ele>
        <time>2014-08-14T09:42:17Z</time>
      </trkpt>
      <trkpt lat="44.66117" lon="6.6605">
        <ele>1119.02</ele>
        <time>2014-08-14T09:42:19Z</time>
      </trkpt>
      <trkpt lat="44.6611" lon="6.66025">
        <ele>1118.22</ele>
        <time>2014-08-14T09:42:21Z</time>
      </trkpt>
      <trkpt lat="44.66104" lon="6.65999">
        <ele>1117.32</ele>
        <time>2014-08-14T09:42:23Z</time>
      </trkpt>
      <trkpt lat="44.66095" lon="6.65958">
        <ele>1115.4</ele>
        <time>2014-08-14T09:42:27Z</time>
      </trkpt>
      <trkpt lat="44.66089" lon="6.65932">
        <ele>1114.16</ele>
        <time>2014-08-14T09:42:31Z</time>
      </trkpt>
      <trkpt lat="44.66081" lon="6.659">
        <ele>1112.18</ele>
        <time>2014-08-14T09:42:43Z</time>
      </trkpt>
      <trkpt lat="44.66072" lon="6.65864">
        <ele>1109.61</ele>
        <time>2014-08-14T09:42:47Z</time>
      </trkpt>
      <trkpt lat="44.66067" lon="6.65821">
        <ele>1106.47</ele>
        <time>2014-08-14T09:42:51Z</time>
      </trkpt>
      <trkpt lat="44.66071" lon="6.65778">
        <ele>1100.43</ele>
        <time>2014-08-14T09:42:55Z</time>
      </trkpt>
      <trkpt lat="44.66073" lon="6.65735">
        <ele>1094.17</ele>
        <time>2014-08-14T09:42:59Z</time>
      </trkpt>
      <trkpt lat="44.66069" lon="6.65692">
        <ele>1090.86</ele>
        <time>2014-08-14T09:43:03Z</time>
      </trkpt>
      <trkpt lat="44.66066" lon="6.65647">
        <ele>1087.28</ele>
        <time>2014-08-14T09:43:07Z</time>
      </trkpt>
      <trkpt lat="44.66066" lon="6.65604">
        <ele>1083.39</ele>
        <time>2014-08-14T09:43:11Z</time>
      </trkpt>
      <trkpt lat="44.66063" lon="6.6557">
        <ele>1080.16</ele>
        <time>2014-08-14T09:43:15Z</time>
      </trkpt>
      <trkpt lat="44.66055" lon="6.65533">
        <ele>1075.11</ele>
        <time>2014-08-14T09:43:19Z</time>
      </trkpt>
      <trkpt lat="44.66052" lon="6.65497">
        <ele>1069.34</ele>
        <time>2014-08-14T09:43:23Z</time>
      </trkpt>
      <trkpt lat="44.66052" lon="6.65456">
        <ele>1064.65</ele>
        <time>2014-08-14T09:43:27Z</time>
      </trkpt>
      <trkpt lat="44.66045" lon="6.65413">
        <ele>1060.98</ele>
        <time>2014-08-14T09:43:31Z</time>
      </trkpt>
      <trkpt lat="44.66041" lon="6.65375">
        <ele>1058.56</ele>
        <time>2014-08-14T09:43:35Z</time>
      </trkpt>
      <trkpt lat="44.66052" lon="6.65351">
        <ele>1056.71</ele>
        <time>2014-08-14T09:43:45Z</time>
      </trkpt>
      <trkpt lat="44.66079" lon="6.65338">
        <ele>1053.46</ele>
        <time>2014-08-14T09:43:51Z</time>
      </trkpt>
      <trkpt lat="44.66096" lon="6.65319">
        <ele>1051.43</ele>
        <time>2014-08-14T09:43:55Z</time>
      </trkpt>
      <trkpt lat="44.66108" lon="6.65295">
        <ele>1050.17</ele>
        <time>2014-08-14T09:43:59Z</time>
      </trkpt>
      <trkpt lat="44.66113" lon="6.65265">
        <ele>1047.89</ele>
        <time>2014-08-14T09:44:05Z</time>
      </trkpt>
      <trkpt lat="44.66115" lon="6.65237">
        <ele>1046.95</ele>
        <time>2014-08-14T09:44:13Z</time>
      </trkpt>
      <trkpt lat="44.66108" lon="6.65209">
        <ele>1044.93</ele>
        <time>2014-08-14T09:44:27Z</time>
      </trkpt>
      <trkpt lat="44.66095" lon="6.6519">
        <ele>1043.73</ele>
        <time>2014-08-14T09:44:33Z</time>
      </trkpt>
      <trkpt lat="44.66082" lon="6.65169">
        <ele>1042.71</ele>
        <time>2014-08-14T09:44:39Z</time>
      </trkpt>
      <trkpt lat="44.66065" lon="6.65145">
        <ele>1041.08</ele>
        <time>2014-08-14T09:44:45Z</time>
      </trkpt>
      <trkpt lat="44.66053" lon="6.65126">
        <ele>1037.13</ele>
        <time>2014-08-14T09:44:51Z</time>
      </trkpt>
      <trkpt lat="44.6604" lon="6.65102">
        <ele>1035.13</ele>
        <time>2014-08-14T09:44:57Z</time>
      </trkpt>
      <trkpt lat="44.66029" lon="6.65078">
        <ele>1032.76</ele>
        <time>2014-08-14T09:45:07Z</time>
      </trkpt>
      <trkpt lat="44.66022" lon="6.65053">
        <ele>1030.99</ele>
        <time>2014-08-14T09:45:17Z</time>
      </trkpt>
      <trkpt lat="44.66015" lon="6.65023">
        <ele>1029.08</ele>
        <time>2014-08-14T09:45:25Z</time>
      </trkpt>
      <trkpt lat="44.6601" lon="6.64995">
        <ele>1027</ele>
        <time>2014-08-14T09:45:35Z</time>
      </trkpt>
      <trkpt lat="44.6599" lon="6.64973">
        <ele>1024.05</ele>
        <time>2014-08-14T09:45:53Z</time>
      </trkpt>
      <trkpt lat="44.66017" lon="6.64939">
        <ele>1021.42</ele>
        <time>2014-08-14T09:47:23Z</time>
      </trkpt>
      <trkpt lat="44.66" lon="6.64928">
        <ele>1026.92</ele>
        <time>2014-08-14T09:49:39Z</time>
      </trkpt>
      <trkpt lat="44.65998" lon="6.649">
        <ele>1026.89</ele>
        <time>2014-08-14T09:49:47Z</time>
      </trkpt>
      <trkpt lat="44.65993" lon="6.64872">
        <ele>1026.43</ele>
        <time>2014-08-14T09:49:59Z</time>
      </trkpt>
      <trkpt lat="44.65981" lon="6.64896">
        <ele>1028.73</ele>
        <time>2014-08-14T09:50:25Z</time>
      </trkpt>
      <trkpt lat="44.65984" lon="6.64926">
        <ele>1031.57</ele>
        <time>2014-08-14T09:50:33Z</time>
      </trkpt>
      <trkpt lat="44.65996" lon="6.64956">
        <ele>1034.49</ele>
        <time>2014-08-14T09:50:41Z</time>
      </trkpt>
      <trkpt lat="44.66004" lon="6.6498">
        <ele>1036.68</ele>
        <time>2014-08-14T09:50:47Z</time>
      </trkpt>
      <trkpt lat="44.66009" lon="6.65005">
        <ele>1038.95</ele>
        <time>2014-08-14T09:50:53Z</time>
      </trkpt>
      <trkpt lat="44.66015" lon="6.6504">
        <ele>1040.27</ele>
        <time>2014-08-14T09:51:01Z</time>
      </trkpt>
      <trkpt lat="44.66016" lon="6.65068">
        <ele>1041.29</ele>
        <time>2014-08-14T09:51:09Z</time>
      </trkpt>
      <trkpt lat="44.66021" lon="6.65098">
        <ele>1042.16</ele>
        <time>2014-08-14T09:51:17Z</time>
      </trkpt>
      <trkpt lat="44.66028" lon="6.65126">
        <ele>1041.47</ele>
        <time>2014-08-14T09:51:25Z</time>
      </trkpt>
      <trkpt lat="44.66039" lon="6.65147">
        <ele>1039.74</ele>
        <time>2014-08-14T09:51:33Z</time>
      </trkpt>
      <trkpt lat="44.66053" lon="6.65164">
        <ele>1038.69</ele>
        <time>2014-08-14T09:51:41Z</time>
      </trkpt>
      <trkpt lat="44.6607" lon="6.65184">
        <ele>1038.43</ele>
        <time>2014-08-14T09:51:51Z</time>
      </trkpt>
      <trkpt lat="44.66085" lon="6.65201">
        <ele>1038.42</ele>
        <time>2014-08-14T09:52:01Z</time>
      </trkpt>
      <trkpt lat="44.66098" lon="6.65222">
        <ele>1038.42</ele>
        <time>2014-08-14T09:52:13Z</time>
      </trkpt>
      <trkpt lat="44.66075" lon="6.65201">
        <ele>1028.95</ele>
        <time>2014-08-14T09:54:43Z</time>
      </trkpt>
      <trkpt lat="44.66061" lon="6.65177">
        <ele>1022.76</ele>
        <time>2014-08-14T09:54:55Z</time>
      </trkpt>
      <trkpt lat="44.66052" lon="6.65156">
        <ele>1021.01</ele>
        <time>2014-08-14T09:54:59Z</time>
      </trkpt>
      <trkpt lat="44.66038" lon="6.65128">
        <ele>1019.58</ele>
        <time>2014-08-14T09:55:07Z</time>
      </trkpt>
      <trkpt lat="44.66041" lon="6.65093">
        <ele>1017.71</ele>
        <time>2014-08-14T09:55:11Z</time>
      </trkpt>
      <trkpt lat="44.66057" lon="6.65078">
        <ele>1013.74</ele>
        <time>2014-08-14T09:55:15Z</time>
      </trkpt>
      <trkpt lat="44.66069" lon="6.65055">
        <ele>1010.75</ele>
        <time>2014-08-14T09:55:19Z</time>
      </trkpt>
      <trkpt lat="44.66083" lon="6.65025">
        <ele>1009.84</ele>
        <time>2014-08-14T09:55:25Z</time>
      </trkpt>
      <trkpt lat="44.66094" lon="6.64995">
        <ele>1009.47</ele>
        <time>2014-08-14T09:55:31Z</time>
      </trkpt>
      <trkpt lat="44.66093" lon="6.64967">
        <ele>1009.42</ele>
        <time>2014-08-14T09:55:39Z</time>
      </trkpt>
      <trkpt lat="44.66083" lon="6.64945">
        <ele>1008.92</ele>
        <time>2014-08-14T09:55:45Z</time>
      </trkpt>
      <trkpt lat="44.66072" lon="6.64915">
        <ele>1007.98</ele>
        <time>2014-08-14T09:55:51Z</time>
      </trkpt>
      <trkpt lat="44.66059" lon="6.64894">
        <ele>1006.99</ele>
        <time>2014-08-14T09:55:57Z</time>
      </trkpt>
      <trkpt lat="44.66038" lon="6.64877">
        <ele>1004.56</ele>
        <time>2014-08-14T09:56:01Z</time>
      </trkpt>
      <trkpt lat="44.66014" lon="6.64868">
        <ele>1002.46</ele>
        <time>2014-08-14T09:56:05Z</time>
      </trkpt>
      <trkpt lat="44.65995" lon="6.64862">
        <ele>1001.55</ele>
        <time>2014-08-14T09:56:11Z</time>
      </trkpt>
      <trkpt lat="44.65996" lon="6.64825">
        <ele>1002.19</ele>
        <time>2014-08-14T09:56:17Z</time>
      </trkpt>
      <trkpt lat="44.66001" lon="6.64789">
        <ele>1001.86</ele>
        <time>2014-08-14T09:56:21Z</time>
      </trkpt>
      <trkpt lat="44.66008" lon="6.64748">
        <ele>1000.78</ele>
        <time>2014-08-14T09:56:25Z</time>
      </trkpt>
      <trkpt lat="44.66014" lon="6.64705">
        <ele>999.76</ele>
        <time>2014-08-14T09:56:29Z</time>
      </trkpt>
      <trkpt lat="44.66017" lon="6.6466">
        <ele>999.51</ele>
        <time>2014-08-14T09:56:33Z</time>
      </trkpt>
      <trkpt lat="44.66015" lon="6.64613">
        <ele>997.69</ele>
        <time>2014-08-14T09:56:37Z</time>
      </trkpt>
      <trkpt lat="44.66011" lon="6.64566">
        <ele>994.99</ele>
        <time>2014-08-14T09:56:41Z</time>
      </trkpt>
      <trkpt lat="44.66007" lon="6.64518">
        <ele>991.81</ele>
        <time>2014-08-14T09:56:45Z</time>
      </trkpt>
      <trkpt lat="44.65997" lon="6.64475">
        <ele>990.77</ele>
        <time>2014-08-14T09:56:49Z</time>
      </trkpt>
      <trkpt lat="44.65978" lon="6.64441">
        <ele>990.51</ele>
        <time>2014-08-14T09:56:53Z</time>
      </trkpt>
      <trkpt lat="44.65955" lon="6.64405">
        <ele>989.69</ele>
        <time>2014-08-14T09:56:57Z</time>
      </trkpt>
      <trkpt lat="44.65946" lon="6.64383">
        <ele>990.06</ele>
        <time>2014-08-14T09:56:59Z</time>
      </trkpt>
      <trkpt lat="44.65938" lon="6.6436">
        <ele>989.74</ele>
        <time>2014-08-14T09:57:01Z</time>
      </trkpt>
      <trkpt lat="44.65936" lon="6.64334">
        <ele>989.08</ele>
        <time>2014-08-14T09:57:03Z</time>
      </trkpt>
      <trkpt lat="44.65935" lon="6.64308">
        <ele>988.25</ele>
        <time>2014-08-14T09:57:05Z</time>
      </trkpt>
      <trkpt lat="44.65934" lon="6.64282">
        <ele>987.34</ele>
        <time>2014-08-14T09:57:07Z</time>
      </trkpt>
      <trkpt lat="44.65935" lon="6.64257">
        <ele>986.38</ele>
        <time>2014-08-14T09:57:09Z</time>
      </trkpt>
      <trkpt lat="44.65938" lon="6.64229">
        <ele>985.9</ele>
        <time>2014-08-14T09:57:11Z</time>
      </trkpt>
      <trkpt lat="44.65948" lon="6.64179">
        <ele>985.04</ele>
        <time>2014-08-14T09:57:15Z</time>
      </trkpt>
      <trkpt lat="44.65953" lon="6.64154">
        <ele>984.23</ele>
        <time>2014-08-14T09:57:17Z</time>
      </trkpt>
      <trkpt lat="44.65962" lon="6.6413">
        <ele>983.83</ele>
        <time>2014-08-14T09:57:19Z</time>
      </trkpt>
      <trkpt lat="44.65972" lon="6.64109">
        <ele>983.62</ele>
        <time>2014-08-14T09:57:21Z</time>
      </trkpt>
      <trkpt lat="44.65982" lon="6.64087">
        <ele>983.02</ele>
        <time>2014-08-14T09:57:23Z</time>
      </trkpt>
      <trkpt lat="44.65989" lon="6.64061">
        <ele>982.72</ele>
        <time>2014-08-14T09:57:25Z</time>
      </trkpt>
      <trkpt lat="44.65991" lon="6.64036">
        <ele>982.07</ele>
        <time>2014-08-14T09:57:27Z</time>
      </trkpt>
      <trkpt lat="44.6599" lon="6.6401">
        <ele>981.75</ele>
        <time>2014-08-14T09:57:29Z</time>
      </trkpt>
      <trkpt lat="44.65987" lon="6.63984">
        <ele>981.58</ele>
        <time>2014-08-14T09:57:31Z</time>
      </trkpt>
      <trkpt lat="44.65984" lon="6.63958">
        <ele>981</ele>
        <time>2014-08-14T09:57:33Z</time>
      </trkpt>
      <trkpt lat="44.65981" lon="6.63933">
        <ele>980.71</ele>
        <time>2014-08-14T09:57:35Z</time>
      </trkpt>
      <trkpt lat="44.65977" lon="6.63907">
        <ele>980.57</ele>
        <time>2014-08-14T09:57:37Z</time>
      </trkpt>
      <trkpt lat="44.65975" lon="6.63881">
        <ele>979.99</ele>
        <time>2014-08-14T09:57:39Z</time>
      </trkpt>
      <trkpt lat="44.65975" lon="6.63855">
        <ele>979.71</ele>
        <time>2014-08-14T09:57:41Z</time>
      </trkpt>
      <trkpt lat="44.65977" lon="6.6383">
        <ele>979.06</ele>
        <time>2014-08-14T09:57:43Z</time>
      </trkpt>
      <trkpt lat="44.65981" lon="6.63804">
        <ele>978.74</ele>
        <time>2014-08-14T09:57:45Z</time>
      </trkpt>
      <trkpt lat="44.65984" lon="6.63776">
        <ele>978.58</ele>
        <time>2014-08-14T09:57:47Z</time>
      </trkpt>
      <trkpt lat="44.65987" lon="6.63748">
        <ele>978</ele>
        <time>2014-08-14T09:57:49Z</time>
      </trkpt>
      <trkpt lat="44.65983" lon="6.63718">
        <ele>977.21</ele>
        <time>2014-08-14T09:57:51Z</time>
      </trkpt>
      <trkpt lat="44.65977" lon="6.63692">
        <ele>975.82</ele>
        <time>2014-08-14T09:57:53Z</time>
      </trkpt>
      <trkpt lat="44.65966" lon="6.63669">
        <ele>974.62</ele>
        <time>2014-08-14T09:57:55Z</time>
      </trkpt>
      <trkpt lat="44.65955" lon="6.63643">
        <ele>973.02</ele>
        <time>2014-08-14T09:57:57Z</time>
      </trkpt>
      <trkpt lat="44.65943" lon="6.63619">
        <ele>972.22</ele>
        <time>2014-08-14T09:57:59Z</time>
      </trkpt>
      <trkpt lat="44.65932" lon="6.63594">
        <ele>971.32</ele>
        <time>2014-08-14T09:58:01Z</time>
      </trkpt>
      <trkpt lat="44.65921" lon="6.6357">
        <ele>970.87</ele>
        <time>2014-08-14T09:58:03Z</time>
      </trkpt>
      <trkpt lat="44.65909" lon="6.63546">
        <ele>970.15</ele>
        <time>2014-08-14T09:58:05Z</time>
      </trkpt>
      <trkpt lat="44.65898" lon="6.63525">
        <ele>969.78</ele>
        <time>2014-08-14T09:58:07Z</time>
      </trkpt>
      <trkpt lat="44.65888" lon="6.63503">
        <ele>969.6</ele>
        <time>2014-08-14T09:58:09Z</time>
      </trkpt>
      <trkpt lat="44.65877" lon="6.6348">
        <ele>969.51</ele>
        <time>2014-08-14T09:58:11Z</time>
      </trkpt>
      <trkpt lat="44.65866" lon="6.63458">
        <ele>969.47</ele>
        <time>2014-08-14T09:58:13Z</time>
      </trkpt>
      <trkpt lat="44.65857" lon="6.63435">
        <ele>969.44</ele>
        <time>2014-08-14T09:58:15Z</time>
      </trkpt>
      <trkpt lat="44.65847" lon="6.63413">
        <ele>969.43</ele>
        <time>2014-08-14T09:58:17Z</time>
      </trkpt>
      <trkpt lat="44.65839" lon="6.6339">
        <ele>969.43</ele>
        <time>2014-08-14T09:58:19Z</time>
      </trkpt>
      <trkpt lat="44.65837" lon="6.63364">
        <ele>968.92</ele>
        <time>2014-08-14T09:58:21Z</time>
      </trkpt>
      <trkpt lat="44.65839" lon="6.63338">
        <ele>968.17</ele>
        <time>2014-08-14T09:58:23Z</time>
      </trkpt>
      <trkpt lat="44.65847" lon="6.63315">
        <ele>967.3</ele>
        <time>2014-08-14T09:58:25Z</time>
      </trkpt>
      <trkpt lat="44.65858" lon="6.63293">
        <ele>965.36</ele>
        <time>2014-08-14T09:58:27Z</time>
      </trkpt>
      <trkpt lat="44.6587" lon="6.63272">
        <ele>963.39</ele>
        <time>2014-08-14T09:58:29Z</time>
      </trkpt>
      <trkpt lat="44.65883" lon="6.63252">
        <ele>961.41</ele>
        <time>2014-08-14T09:58:31Z</time>
      </trkpt>
      <trkpt lat="44.65897" lon="6.63233">
        <ele>959.41</ele>
        <time>2014-08-14T09:58:33Z</time>
      </trkpt>
      <trkpt lat="44.65922" lon="6.63194">
        <ele>955.92</ele>
        <time>2014-08-14T09:58:37Z</time>
      </trkpt>
      <trkpt lat="44.65934" lon="6.63175">
        <ele>954.67</ele>
        <time>2014-08-14T09:58:39Z</time>
      </trkpt>
      <trkpt lat="44.65943" lon="6.63154">
        <ele>954.05</ele>
        <time>2014-08-14T09:58:41Z</time>
      </trkpt>
      <trkpt lat="44.6596" lon="6.63111">
        <ele>952.83</ele>
        <time>2014-08-14T09:58:45Z</time>
      </trkpt>
      <trkpt lat="44.65972" lon="6.63061">
        <ele>951.27</ele>
        <time>2014-08-14T09:58:49Z</time>
      </trkpt>
      <trkpt lat="44.65978" lon="6.63036">
        <ele>950.85</ele>
        <time>2014-08-14T09:58:51Z</time>
      </trkpt>
      <trkpt lat="44.6598" lon="6.6301">
        <ele>950.63</ele>
        <time>2014-08-14T09:58:53Z</time>
      </trkpt>
      <trkpt lat="44.65981" lon="6.62984">
        <ele>950.03</ele>
        <time>2014-08-14T09:58:55Z</time>
      </trkpt>
      <trkpt lat="44.65981" lon="6.62958">
        <ele>949.22</ele>
        <time>2014-08-14T09:58:57Z</time>
      </trkpt>
      <trkpt lat="44.65979" lon="6.62933">
        <ele>948.82</ele>
        <time>2014-08-14T09:58:59Z</time>
      </trkpt>
      <trkpt lat="44.65978" lon="6.62907">
        <ele>948.12</ele>
        <time>2014-08-14T09:59:01Z</time>
      </trkpt>
      <trkpt lat="44.65977" lon="6.62881">
        <ele>947.77</ele>
        <time>2014-08-14T09:59:03Z</time>
      </trkpt>
      <trkpt lat="44.65973" lon="6.62851">
        <ele>947.1</ele>
        <time>2014-08-14T09:59:05Z</time>
      </trkpt>
      <trkpt lat="44.65971" lon="6.62823">
        <ele>946.76</ele>
        <time>2014-08-14T09:59:07Z</time>
      </trkpt>
      <trkpt lat="44.65969" lon="6.62797">
        <ele>946.09</ele>
        <time>2014-08-14T09:59:09Z</time>
      </trkpt>
      <trkpt lat="44.65968" lon="6.6277">
        <ele>945.26</ele>
        <time>2014-08-14T09:59:11Z</time>
      </trkpt>
      <trkpt lat="44.65966" lon="6.62742">
        <ele>944.34</ele>
        <time>2014-08-14T09:59:13Z</time>
      </trkpt>
      <trkpt lat="44.65964" lon="6.62716">
        <ele>943.88</ele>
        <time>2014-08-14T09:59:15Z</time>
      </trkpt>
      <trkpt lat="44.65964" lon="6.62686">
        <ele>943.15</ele>
        <time>2014-08-14T09:59:17Z</time>
      </trkpt>
      <trkpt lat="44.65963" lon="6.62656">
        <ele>941.29</ele>
        <time>2014-08-14T09:59:19Z</time>
      </trkpt>
      <trkpt lat="44.65962" lon="6.62628">
        <ele>939.35</ele>
        <time>2014-08-14T09:59:21Z</time>
      </trkpt>
      <trkpt lat="44.65961" lon="6.626">
        <ele>937.89</ele>
        <time>2014-08-14T09:59:23Z</time>
      </trkpt>
      <trkpt lat="44.6596" lon="6.62572">
        <ele>936.15</ele>
        <time>2014-08-14T09:59:25Z</time>
      </trkpt>
      <trkpt lat="44.6596" lon="6.62544">
        <ele>935.29</ele>
        <time>2014-08-14T09:59:27Z</time>
      </trkpt>
      <trkpt lat="44.65968" lon="6.62521">
        <ele>934.85</ele>
        <time>2014-08-14T09:59:29Z</time>
      </trkpt>
      <trkpt lat="44.65978" lon="6.62499">
        <ele>934.14</ele>
        <time>2014-08-14T09:59:31Z</time>
      </trkpt>
      <trkpt lat="44.6599" lon="6.62476">
        <ele>932.78</ele>
        <time>2014-08-14T09:59:33Z</time>
      </trkpt>
      <trkpt lat="44.66" lon="6.62452">
        <ele>931.1</ele>
        <time>2014-08-14T09:59:35Z</time>
      </trkpt>
      <trkpt lat="44.66012" lon="6.62428">
        <ele>928.76</ele>
        <time>2014-08-14T09:59:37Z</time>
      </trkpt>
      <trkpt lat="44.66023" lon="6.62405">
        <ele>926.09</ele>
        <time>2014-08-14T09:59:39Z</time>
      </trkpt>
      <trkpt lat="44.66034" lon="6.62379">
        <ele>923.76</ele>
        <time>2014-08-14T09:59:41Z</time>
      </trkpt>
      <trkpt lat="44.66042" lon="6.62355">
        <ele>921.09</ele>
        <time>2014-08-14T09:59:43Z</time>
      </trkpt>
      <trkpt lat="44.66052" lon="6.62308">
        <ele>916.59</ele>
        <time>2014-08-14T09:59:47Z</time>
      </trkpt>
      <trkpt lat="44.66057" lon="6.62263">
        <ele>913.71</ele>
        <time>2014-08-14T09:59:51Z</time>
      </trkpt>
      <trkpt lat="44.66061" lon="6.6222">
        <ele>911.99</ele>
        <time>2014-08-14T09:59:55Z</time>
      </trkpt>
      <trkpt lat="44.66065" lon="6.62182">
        <ele>910.81</ele>
        <time>2014-08-14T09:59:59Z</time>
      </trkpt>
      <trkpt lat="44.66069" lon="6.62145">
        <ele>909.77</ele>
        <time>2014-08-14T10:00:03Z</time>
      </trkpt>
      <trkpt lat="44.66072" lon="6.62111">
        <ele>909.51</ele>
        <time>2014-08-14T10:00:07Z</time>
      </trkpt>
      <trkpt lat="44.66073" lon="6.62076">
        <ele>908.94</ele>
        <time>2014-08-14T10:00:11Z</time>
      </trkpt>
      <trkpt lat="44.66085" lon="6.62044">
        <ele>908.99</ele>
        <time>2014-08-14T10:00:17Z</time>
      </trkpt>
      <trkpt lat="44.66104" lon="6.62034">
        <ele>909.31</ele>
        <time>2014-08-14T10:00:21Z</time>
      </trkpt>
      <trkpt lat="44.66128" lon="6.62025">
        <ele>909.89</ele>
        <time>2014-08-14T10:00:25Z</time>
      </trkpt>
      <trkpt lat="44.66151" lon="6.62012">
        <ele>910.29</ele>
        <time>2014-08-14T10:00:29Z</time>
      </trkpt>
      <trkpt lat="44.66169" lon="6.61993">
        <ele>909.89</ele>
        <time>2014-08-14T10:00:33Z</time>
      </trkpt>
      <trkpt lat="44.66181" lon="6.61967">
        <ele>908.79</ele>
        <time>2014-08-14T10:00:37Z</time>
      </trkpt>
      <trkpt lat="44.66195" lon="6.61937">
        <ele>908.51</ele>
        <time>2014-08-14T10:00:41Z</time>
      </trkpt>
      <trkpt lat="44.6621" lon="6.61909">
        <ele>908.44</ele>
        <time>2014-08-14T10:00:45Z</time>
      </trkpt>
      <trkpt lat="44.66212" lon="6.61879">
        <ele>908.43</ele>
        <time>2014-08-14T10:00:49Z</time>
      </trkpt>
      <trkpt lat="44.66203" lon="6.61853">
        <ele>908.42</ele>
        <time>2014-08-14T10:00:53Z</time>
      </trkpt>
      <trkpt lat="44.66191" lon="6.61823">
        <ele>908.42</ele>
        <time>2014-08-14T10:00:57Z</time>
      </trkpt>
      <trkpt lat="44.66173" lon="6.61804">
        <ele>909.17</ele>
        <time>2014-08-14T10:01:01Z</time>
      </trkpt>
      <trkpt lat="44.66155" lon="6.618">
        <ele>908.86</ele>
        <time>2014-08-14T10:01:05Z</time>
      </trkpt>
      <trkpt lat="44.6614" lon="6.61772">
        <ele>908.48</ele>
        <time>2014-08-14T10:01:11Z</time>
      </trkpt>
      <trkpt lat="44.66126" lon="6.61748">
        <ele>908.43</ele>
        <time>2014-08-14T10:01:17Z</time>
      </trkpt>
      <trkpt lat="44.6614" lon="6.6178">
        <ele>907.55</ele>
        <time>2014-08-14T10:03:01Z</time>
      </trkpt>
      <trkpt lat="44.66155" lon="6.61795">
        <ele>908.7</ele>
        <time>2014-08-14T10:03:05Z</time>
      </trkpt>
      <trkpt lat="44.6617" lon="6.61813">
        <ele>909.33</ele>
        <time>2014-08-14T10:03:11Z</time>
      </trkpt>
      <trkpt lat="44.66177" lon="6.61845">
        <ele>911.53</ele>
        <time>2014-08-14T10:03:17Z</time>
      </trkpt>
      <trkpt lat="44.66195" lon="6.6186">
        <ele>912.95</ele>
        <time>2014-08-14T10:03:21Z</time>
      </trkpt>
      <trkpt lat="44.66208" lon="6.61883">
        <ele>913.55</ele>
        <time>2014-08-14T10:03:25Z</time>
      </trkpt>
      <trkpt lat="44.66201" lon="6.61909">
        <ele>911.95</ele>
        <time>2014-08-14T10:03:29Z</time>
      </trkpt>
      <trkpt lat="44.66189" lon="6.61933">
        <ele>908.8</ele>
        <time>2014-08-14T10:03:33Z</time>
      </trkpt>
      <trkpt lat="44.66176" lon="6.61958">
        <ele>906.02</ele>
        <time>2014-08-14T10:03:37Z</time>
      </trkpt>
      <trkpt lat="44.66166" lon="6.61982">
        <ele>903.07</ele>
        <time>2014-08-14T10:03:41Z</time>
      </trkpt>
      <trkpt lat="44.66149" lon="6.61997">
        <ele>901.08</ele>
        <time>2014-08-14T10:03:45Z</time>
      </trkpt>
      <trkpt lat="44.66132" lon="6.62008">
        <ele>899.84</ele>
        <time>2014-08-14T10:03:49Z</time>
      </trkpt>
      <trkpt lat="44.66114" lon="6.62016">
        <ele>899.52</ele>
        <time>2014-08-14T10:03:53Z</time>
      </trkpt>
      <trkpt lat="44.66094" lon="6.62023">
        <ele>900.2</ele>
        <time>2014-08-14T10:03:57Z</time>
      </trkpt>
      <trkpt lat="44.66076" lon="6.62034">
        <ele>901.61</ele>
        <time>2014-08-14T10:04:01Z</time>
      </trkpt>
      <trkpt lat="44.66066" lon="6.6207">
        <ele>903.57</ele>
        <time>2014-08-14T10:04:07Z</time>
      </trkpt>
      <trkpt lat="44.66067" lon="6.62107">
        <ele>904.21</ele>
        <time>2014-08-14T10:04:11Z</time>
      </trkpt>
      <trkpt lat="44.66066" lon="6.62143">
        <ele>905.62</ele>
        <time>2014-08-14T10:04:15Z</time>
      </trkpt>
      <trkpt lat="44.66061" lon="6.62182">
        <ele>906.72</ele>
        <time>2014-08-14T10:04:19Z</time>
      </trkpt>
      <trkpt lat="44.66057" lon="6.6222">
        <ele>907.25</ele>
        <time>2014-08-14T10:04:23Z</time>
      </trkpt>
      <trkpt lat="44.66052" lon="6.62255">
        <ele>907.38</ele>
        <time>2014-08-14T10:04:27Z</time>
      </trkpt>
      <trkpt lat="44.66049" lon="6.62287">
        <ele>906.16</ele>
        <time>2014-08-14T10:04:31Z</time>
      </trkpt>
      <trkpt lat="44.66043" lon="6.62317">
        <ele>904.36</ele>
        <time>2014-08-14T10:04:35Z</time>
      </trkpt>
      <trkpt lat="44.66035" lon="6.62345">
        <ele>903.65</ele>
        <time>2014-08-14T10:04:39Z</time>
      </trkpt>
      <trkpt lat="44.66025" lon="6.6237">
        <ele>903.48</ele>
        <time>2014-08-14T10:04:43Z</time>
      </trkpt>
      <trkpt lat="44.66015" lon="6.62396">
        <ele>903.43</ele>
        <time>2014-08-14T10:04:49Z</time>
      </trkpt>
      <trkpt lat="44.66006" lon="6.6242">
        <ele>902.55</ele>
        <time>2014-08-14T10:04:55Z</time>
      </trkpt>
      <trkpt lat="44.65996" lon="6.62443">
        <ele>902.44</ele>
        <time>2014-08-14T10:05:01Z</time>
      </trkpt>
      <trkpt lat="44.65985" lon="6.62465">
        <ele>902.42</ele>
        <time>2014-08-14T10:05:07Z</time>
      </trkpt>
      <trkpt lat="44.65973" lon="6.62488">
        <ele>902.42</ele>
        <time>2014-08-14T10:05:13Z</time>
      </trkpt>
      <trkpt lat="44.65955" lon="6.62506">
        <ele>903.17</ele>
        <time>2014-08-14T10:06:01Z</time>
      </trkpt>
      <trkpt lat="44.65953" lon="6.62536">
        <ele>903.39</ele>
        <time>2014-08-14T10:06:07Z</time>
      </trkpt>
      <trkpt lat="44.65956" lon="6.6257">
        <ele>904.79</ele>
        <time>2014-08-14T10:06:13Z</time>
      </trkpt>
      <trkpt lat="44.65958" lon="6.62596">
        <ele>904.01</ele>
        <time>2014-08-14T10:06:17Z</time>
      </trkpt>
      <trkpt lat="44.65961" lon="6.6263">
        <ele>902.12</ele>
        <time>2014-08-14T10:06:23Z</time>
      </trkpt>
      <trkpt lat="44.65964" lon="6.62662">
        <ele>901.51</ele>
        <time>2014-08-14T10:06:29Z</time>
      </trkpt>
      <trkpt lat="44.65967" lon="6.62694">
        <ele>902.18</ele>
        <time>2014-08-14T10:06:35Z</time>
      </trkpt>
      <trkpt lat="44.65969" lon="6.62724">
        <ele>902.39</ele>
        <time>2014-08-14T10:06:41Z</time>
      </trkpt>
      <trkpt lat="44.65971" lon="6.62755">
        <ele>903.17</ele>
        <time>2014-08-14T10:06:47Z</time>
      </trkpt>
      <trkpt lat="44.65973" lon="6.62782">
        <ele>903.39</ele>
        <time>2014-08-14T10:06:53Z</time>
      </trkpt>
      <trkpt lat="44.65977" lon="6.6281">
        <ele>903.42</ele>
        <time>2014-08-14T10:06:59Z</time>
      </trkpt>
      <trkpt lat="44.6598" lon="6.62838">
        <ele>903.42</ele>
        <time>2014-08-14T10:07:05Z</time>
      </trkpt>
      <trkpt lat="44.65982" lon="6.62866">
        <ele>903.92</ele>
        <time>2014-08-14T10:07:11Z</time>
      </trkpt>
      <trkpt lat="44.65986" lon="6.62898">
        <ele>904.39</ele>
        <time>2014-08-14T10:07:19Z</time>
      </trkpt>
      <trkpt lat="44.65993" lon="6.62924">
        <ele>904.92</ele>
        <time>2014-08-14T10:07:25Z</time>
      </trkpt>
      <trkpt lat="44.66001" lon="6.62948">
        <ele>905.89</ele>
        <time>2014-08-14T10:07:33Z</time>
      </trkpt>
      <trkpt lat="44.66016" lon="6.6292">
        <ele>910.98</ele>
        <time>2014-08-14T10:07:39Z</time>
      </trkpt>
      <trkpt lat="44.66029" lon="6.62888">
        <ele>914.31</ele>
        <time>2014-08-14T10:07:43Z</time>
      </trkpt>
      <trkpt lat="44.66049" lon="6.62862">
        <ele>915.39</ele>
        <time>2014-08-14T10:07:47Z</time>
      </trkpt>
      <trkpt lat="44.66066" lon="6.62849">
        <ele>915.41</ele>
        <time>2014-08-14T10:07:51Z</time>
      </trkpt>
      <trkpt lat="44.66042" lon="6.62832">
        <ele>915.42</ele>
        <time>2014-08-14T10:08:07Z</time>
      </trkpt>
    </trkseg>
  </trk>
</gpx>